<?xml version="1.0" encoding="UTF-8" standalone="no" ?>
<gpx xmlns="http://www.topografix.com/GPX/1/1" xmlns:xsi="http://www.w3.org/2001/XMLSchema-instance" xsi:schemaLocation="http://www.topografix.com/GPX/1/1 http://www.topografix.com/GPX/1/1/gpx.xsd" version="1.1" creator="VisuGPX - https://www.visugpx.com">
  <metadata>
    <name>Proposition de sortie VTT 2</name>
  </metadata>
  <trk>
    <name><![CDATA[Tour à vélo à faire 28 03 2021 V2]]></name>
    <trkseg>
      <trkpt lat="47.15351" lon="6.33239">
        <ele>632.246266</ele>
        <time>2021-03-28T16:34:28.193Z</time>
      </trkpt>
      <trkpt lat="47.1535" lon="6.33229">
        <ele>632.246266</ele>
        <time>2021-03-28T16:34:29.705Z</time>
      </trkpt>
      <trkpt lat="47.15345" lon="6.33128">
        <ele>632.246266</ele>
        <time>2021-03-28T16:34:44.298Z</time>
      </trkpt>
      <trkpt lat="47.15346" lon="6.3311">
        <ele>632.246266</ele>
        <time>2021-03-28T16:34:46.825Z</time>
      </trkpt>
      <trkpt lat="47.15321" lon="6.331">
        <ele>632.067399</ele>
        <time>2021-03-28T16:34:52.308Z</time>
      </trkpt>
      <trkpt lat="47.15326" lon="6.33069">
        <ele>631.909061</ele>
        <time>2021-03-28T16:34:56.696Z</time>
      </trkpt>
      <trkpt lat="47.15334" lon="6.33039">
        <ele>631.7439</ele>
        <time>2021-03-28T16:35:01.286Z</time>
      </trkpt>
      <trkpt lat="47.15339" lon="6.33025">
        <ele>631.665469</ele>
        <time>2021-03-28T16:35:03.503Z</time>
      </trkpt>
      <trkpt lat="47.15354" lon="6.32987">
        <ele>631.44227</ele>
        <time>2021-03-28T16:35:09.779Z</time>
      </trkpt>
      <trkpt lat="47.15367" lon="6.32947">
        <ele>631.216342</ele>
        <time>2021-03-28T16:35:15.970Z</time>
      </trkpt>
      <trkpt lat="47.15374" lon="6.32927">
        <ele>631.101471</ele>
        <time>2021-03-28T16:35:19.130Z</time>
      </trkpt>
      <trkpt lat="47.15389" lon="6.32885">
        <ele>630.883051</ele>
        <time>2021-03-28T16:35:25.772Z</time>
      </trkpt>
      <trkpt lat="47.15397" lon="6.32863">
        <ele>630.815105</ele>
        <time>2021-03-28T16:35:29.211Z</time>
      </trkpt>
      <trkpt lat="47.15402" lon="6.32853">
        <ele>630.780358</ele>
        <time>2021-03-28T16:35:31.010Z</time>
      </trkpt>
      <trkpt lat="47.15404" lon="6.32851">
        <ele>630.77109</ele>
        <time>2021-03-28T16:35:31.478Z</time>
      </trkpt>
      <trkpt lat="47.15404" lon="6.32851">
        <ele>630.77109</ele>
        <time>2021-03-28T16:35:31.494Z</time>
      </trkpt>
      <trkpt lat="47.15403" lon="6.32855">
        <ele>630.760962</ele>
        <time>2021-03-28T16:35:32.145Z</time>
      </trkpt>
      <trkpt lat="47.15408" lon="6.32839">
        <ele>630.713659</ele>
        <time>2021-03-28T16:35:35.186Z</time>
      </trkpt>
      <trkpt lat="47.15412" lon="6.32824">
        <ele>630.67023</ele>
        <time>2021-03-28T16:35:37.977Z</time>
      </trkpt>
      <trkpt lat="47.15416" lon="6.32808">
        <ele>630.622835</ele>
        <time>2021-03-28T16:35:41.024Z</time>
      </trkpt>
      <trkpt lat="47.15419" lon="6.32792">
        <ele>630.575923</ele>
        <time>2021-03-28T16:35:44.040Z</time>
      </trkpt>
      <trkpt lat="47.15422" lon="6.32775">
        <ele>630.528841</ele>
        <time>2021-03-28T16:35:47.067Z</time>
      </trkpt>
      <trkpt lat="47.15425" lon="6.32742">
        <ele>630.437645</ele>
        <time>2021-03-28T16:35:52.931Z</time>
      </trkpt>
      <trkpt lat="47.15427" lon="6.3271">
        <ele>630.349739</ele>
        <time>2021-03-28T16:35:58.583Z</time>
      </trkpt>
      <trkpt lat="47.1543" lon="6.32696">
        <ele>630.310669</ele>
        <time>2021-03-28T16:36:01.095Z</time>
      </trkpt>
      <trkpt lat="47.15431" lon="6.32683">
        <ele>630.273893</ele>
        <time>2021-03-28T16:36:03.460Z</time>
      </trkpt>
      <trkpt lat="47.15437" lon="6.32665">
        <ele>630.21922</ele>
        <time>2021-03-28T16:36:06.973Z</time>
      </trkpt>
      <trkpt lat="47.15444" lon="6.32649">
        <ele>630.200312</ele>
        <time>2021-03-28T16:36:10.401Z</time>
      </trkpt>
      <trkpt lat="47.15449" lon="6.32654">
        <ele>630.230493</ele>
        <time>2021-03-28T16:36:11.861Z</time>
      </trkpt>
      <trkpt lat="47.15449" lon="6.32654">
        <ele>630.230493</ele>
        <time>2021-03-28T16:36:11.864Z</time>
      </trkpt>
      <trkpt lat="47.15448" lon="6.32629">
        <ele>630.321499</ele>
        <time>2021-03-28T16:36:15.835Z</time>
      </trkpt>
      <trkpt lat="47.15452" lon="6.32589">
        <ele>630.467327</ele>
        <time>2021-03-28T16:36:21.876Z</time>
      </trkpt>
      <trkpt lat="47.15455" lon="6.3257">
        <ele>630.538691</ele>
        <time>2021-03-28T16:36:25.051Z</time>
      </trkpt>
      <trkpt lat="47.15459" lon="6.32559">
        <ele>630.582018</ele>
        <time>2021-03-28T16:36:26.936Z</time>
      </trkpt>
      <trkpt lat="47.15472" lon="6.32513">
        <ele>630.762474</ele>
        <time>2021-03-28T16:36:34.671Z</time>
      </trkpt>
      <trkpt lat="47.15474" lon="6.32488">
        <ele>630.85666</ele>
        <time>2021-03-28T16:36:38.582Z</time>
      </trkpt>
      <trkpt lat="47.15464" lon="6.32417">
        <ele>631.118927</ele>
        <time>2021-03-28T16:36:49.834Z</time>
      </trkpt>
      <trkpt lat="47.15465" lon="6.32389">
        <ele>631.180743</ele>
        <time>2021-03-28T16:36:54.241Z</time>
      </trkpt>
      <trkpt lat="47.15467" lon="6.32379">
        <ele>631.19889</ele>
        <time>2021-03-28T16:36:55.968Z</time>
      </trkpt>
      <trkpt lat="47.15483" lon="6.32346">
        <ele>631.268177</ele>
        <time>2021-03-28T16:37:02.095Z</time>
      </trkpt>
      <trkpt lat="47.15484" lon="6.32334">
        <ele>631.288487</ele>
        <time>2021-03-28T16:37:04.010Z</time>
      </trkpt>
      <trkpt lat="47.1548" lon="6.32323">
        <ele>631.309155</ele>
        <time>2021-03-28T16:37:05.739Z</time>
      </trkpt>
      <trkpt lat="47.15411" lon="6.32236">
        <ele>631.540559</ele>
        <time>2021-03-28T16:37:25.921Z</time>
      </trkpt>
      <trkpt lat="47.15383" lon="6.32184">
        <ele>631.65101</ele>
        <time>2021-03-28T16:37:35.935Z</time>
      </trkpt>
      <trkpt lat="47.15316" lon="6.32086">
        <ele>631.868737</ele>
        <time>2021-03-28T16:37:56.760Z</time>
      </trkpt>
      <trkpt lat="47.15263" lon="6.31983">
        <ele>632.009752</ele>
        <time>2021-03-28T16:38:16.729Z</time>
      </trkpt>
      <trkpt lat="47.15258" lon="6.31966">
        <ele>632.007322</ele>
        <time>2021-03-28T16:38:19.651Z</time>
      </trkpt>
      <trkpt lat="47.15257" lon="6.31964">
        <ele>632.007057</ele>
        <time>2021-03-28T16:38:19.970Z</time>
      </trkpt>
      <trkpt lat="47.15254" lon="6.31954">
        <ele>632.005713</ele>
        <time>2021-03-28T16:38:21.552Z</time>
      </trkpt>
      <trkpt lat="47.15244" lon="6.31892">
        <ele>631.997515</ele>
        <time>2021-03-28T16:38:31.266Z</time>
      </trkpt>
      <trkpt lat="47.15233" lon="6.3183">
        <ele>631.989437</ele>
        <time>2021-03-28T16:38:40.704Z</time>
      </trkpt>
      <trkpt lat="47.15233" lon="6.31827">
        <ele>631.989001</ele>
        <time>2021-03-28T16:38:41.207Z</time>
      </trkpt>
      <trkpt lat="47.15232" lon="6.31821">
        <ele>631.988245</ele>
        <time>2021-03-28T16:38:42.076Z</time>
      </trkpt>
      <trkpt lat="47.15225" lon="6.31789">
        <ele>631.983928</ele>
        <time>2021-03-28T16:38:47.056Z</time>
      </trkpt>
      <trkpt lat="47.15231" lon="6.31788">
        <ele>631.98281</ele>
        <time>2021-03-28T16:38:48.673Z</time>
      </trkpt>
      <trkpt lat="47.15218" lon="6.31731">
        <ele>631.472011</ele>
        <time>2021-03-28T16:38:57.223Z</time>
      </trkpt>
      <trkpt lat="47.15204" lon="6.31675">
        <ele>630.73995</ele>
        <time>2021-03-28T16:39:05.250Z</time>
      </trkpt>
      <trkpt lat="47.15177" lon="6.31614">
        <ele>629.852254</ele>
        <time>2021-03-28T16:39:14.206Z</time>
      </trkpt>
      <trkpt lat="47.15156" lon="6.31579">
        <ele>629.292193</ele>
        <time>2021-03-28T16:39:19.772Z</time>
      </trkpt>
      <trkpt lat="47.1512" lon="6.31543">
        <ele>628.419642</ele>
        <time>2021-03-28T16:39:27.688Z</time>
      </trkpt>
      <trkpt lat="47.15106" lon="6.31537">
        <ele>628.090312</ele>
        <time>2021-03-28T16:39:30.231Z</time>
      </trkpt>
      <trkpt lat="47.15111" lon="6.31516">
        <ele>627.739052</ele>
        <time>2021-03-28T16:39:34.611Z</time>
      </trkpt>
      <trkpt lat="47.15138" lon="6.31372">
        <ele>625.317294</ele>
        <time>2021-03-28T16:40:05.802Z</time>
      </trkpt>
      <trkpt lat="47.15147" lon="6.31348">
        <ele>624.878885</ele>
        <time>2021-03-28T16:40:11.470Z</time>
      </trkpt>
      <trkpt lat="47.15177" lon="6.31167">
        <ele>622.864355</ele>
        <time>2021-03-28T16:40:52.050Z</time>
      </trkpt>
      <trkpt lat="47.15185" lon="6.31157">
        <ele>622.708942</ele>
        <time>2021-03-28T16:40:55.542Z</time>
      </trkpt>
      <trkpt lat="47.15207" lon="6.31147">
        <ele>622.364649</ele>
        <time>2021-03-28T16:41:03.363Z</time>
      </trkpt>
      <trkpt lat="47.15201" lon="6.3111">
        <ele>621.981939</ele>
        <time>2021-03-28T16:41:12.186Z</time>
      </trkpt>
      <trkpt lat="47.1519" lon="6.31079">
        <ele>621.840479</ele>
        <time>2021-03-28T16:41:20.353Z</time>
      </trkpt>
      <trkpt lat="47.15218" lon="6.30979">
        <ele>621.841967</ele>
        <time>2021-03-28T16:41:45.886Z</time>
      </trkpt>
      <trkpt lat="47.15218" lon="6.30945">
        <ele>621.842432</ele>
        <time>2021-03-28T16:41:53.854Z</time>
      </trkpt>
      <trkpt lat="47.15228" lon="6.30898">
        <ele>621.843105</ele>
        <time>2021-03-28T16:42:05.340Z</time>
      </trkpt>
      <trkpt lat="47.15238" lon="6.30802">
        <ele>621.970568</ele>
        <time>2021-03-28T16:42:28.146Z</time>
      </trkpt>
      <trkpt lat="47.15247" lon="6.30757">
        <ele>622.10295</ele>
        <time>2021-03-28T16:42:39.011Z</time>
      </trkpt>
      <trkpt lat="47.15304" lon="6.30657">
        <ele>622.471895</ele>
        <time>2021-03-28T16:43:09.261Z</time>
      </trkpt>
      <trkpt lat="47.1531" lon="6.30622">
        <ele>622.575537</ele>
        <time>2021-03-28T16:43:17.852Z</time>
      </trkpt>
      <trkpt lat="47.1531" lon="6.30617">
        <ele>622.589193</ele>
        <time>2021-03-28T16:43:18.987Z</time>
      </trkpt>
      <trkpt lat="47.1531" lon="6.30569">
        <ele>622.294926</ele>
        <time>2021-03-28T16:43:30.278Z</time>
      </trkpt>
      <trkpt lat="47.15296" lon="6.30551">
        <ele>622.112066</ele>
        <time>2021-03-28T16:43:36.648Z</time>
      </trkpt>
      <trkpt lat="47.15295" lon="6.30528">
        <ele>621.959289</ele>
        <time>2021-03-28T16:43:42.085Z</time>
      </trkpt>
      <trkpt lat="47.15303" lon="6.30434">
        <ele>621.329936</ele>
        <time>2021-03-28T16:44:03.789Z</time>
      </trkpt>
      <trkpt lat="47.15308" lon="6.30419">
        <ele>621.219493</ele>
        <time>2021-03-28T16:44:07.495Z</time>
      </trkpt>
      <trkpt lat="47.15292" lon="6.30412">
        <ele>621.053312</ele>
        <time>2021-03-28T16:44:12.942Z</time>
      </trkpt>
      <trkpt lat="47.15287" lon="6.30407">
        <ele>620.994453</ele>
        <time>2021-03-28T16:44:15.020Z</time>
      </trkpt>
      <trkpt lat="47.15284" lon="6.30387">
        <ele>620.858825</ele>
        <time>2021-03-28T16:44:19.512Z</time>
      </trkpt>
      <trkpt lat="47.15284" lon="6.2995">
        <ele>616.438895</ele>
        <time>2021-03-28T16:45:55.936Z</time>
      </trkpt>
      <trkpt lat="47.15291" lon="6.29853">
        <ele>615.553965</ele>
        <time>2021-03-28T16:46:18.368Z</time>
      </trkpt>
      <trkpt lat="47.15309" lon="6.29775">
        <ele>615.470552</ele>
        <time>2021-03-28T16:46:37.319Z</time>
      </trkpt>
      <trkpt lat="47.15313" lon="6.29758">
        <ele>615.452588</ele>
        <time>2021-03-28T16:46:41.482Z</time>
      </trkpt>
      <trkpt lat="47.15295" lon="6.29748">
        <ele>615.424477</ele>
        <time>2021-03-28T16:46:47.927Z</time>
      </trkpt>
      <trkpt lat="47.15282" lon="6.29732">
        <ele>615.399461</ele>
        <time>2021-03-28T16:46:53.768Z</time>
      </trkpt>
      <trkpt lat="47.15283" lon="6.29718">
        <ele>615.38512</ele>
        <time>2021-03-28T16:46:55.757Z</time>
      </trkpt>
      <trkpt lat="47.1529" lon="6.29684">
        <ele>615.349866</ele>
        <time>2021-03-28T16:47:01.240Z</time>
      </trkpt>
      <trkpt lat="47.15315" lon="6.29613">
        <ele>615.480267</ele>
        <time>2021-03-28T16:47:13.787Z</time>
      </trkpt>
      <trkpt lat="47.15318" lon="6.296">
        <ele>615.598031</ele>
        <time>2021-03-28T16:47:15.922Z</time>
      </trkpt>
      <trkpt lat="47.15308" lon="6.29594">
        <ele>615.734616</ele>
        <time>2021-03-28T16:47:18.507Z</time>
      </trkpt>
      <trkpt lat="47.15263" lon="6.29569">
        <ele>616.351571</ele>
        <time>2021-03-28T16:47:29.789Z</time>
      </trkpt>
      <trkpt lat="47.15249" lon="6.29564">
        <ele>616.533511</ele>
        <time>2021-03-28T16:47:33.156Z</time>
      </trkpt>
      <trkpt lat="47.15258" lon="6.29531">
        <ele>616.838907</ele>
        <time>2021-03-28T16:47:38.842Z</time>
      </trkpt>
      <trkpt lat="47.15316" lon="6.29347">
        <ele>618.200258</ele>
        <time>2021-03-28T16:48:11.526Z</time>
      </trkpt>
      <trkpt lat="47.15349" lon="6.29163">
        <ele>618.895002</ele>
        <time>2021-03-28T16:48:40.413Z</time>
      </trkpt>
      <trkpt lat="47.15312" lon="6.29127">
        <ele>618.759424</ele>
        <time>2021-03-28T16:48:49.887Z</time>
      </trkpt>
      <trkpt lat="47.15208" lon="6.29006">
        <ele>618.288816</ele>
        <time>2021-03-28T16:49:17.913Z</time>
      </trkpt>
      <trkpt lat="47.15184" lon="6.28971">
        <ele>618.102131</ele>
        <time>2021-03-28T16:49:25.073Z</time>
      </trkpt>
      <trkpt lat="47.15127" lon="6.28861">
        <ele>617.590845</ele>
        <time>2021-03-28T16:49:44.712Z</time>
      </trkpt>
      <trkpt lat="47.15109" lon="6.28813">
        <ele>617.465325</ele>
        <time>2021-03-28T16:49:52.695Z</time>
      </trkpt>
      <trkpt lat="47.15094" lon="6.28764">
        <ele>617.527098</ele>
        <time>2021-03-28T16:50:00.259Z</time>
      </trkpt>
      <trkpt lat="47.15079" lon="6.28712">
        <ele>617.593582</ele>
        <time>2021-03-28T16:50:08.416Z</time>
      </trkpt>
      <trkpt lat="47.15052" lon="6.28643">
        <ele>617.686317</ele>
        <time>2021-03-28T16:50:20.506Z</time>
      </trkpt>
      <trkpt lat="47.15001" lon="6.28539">
        <ele>619.145991</ele>
        <time>2021-03-28T16:50:41.036Z</time>
      </trkpt>
      <trkpt lat="47.14928" lon="6.28647">
        <ele>622.160679</ele>
        <time>2021-03-28T16:51:15.807Z</time>
      </trkpt>
      <trkpt lat="47.14862" lon="6.28756">
        <ele>625.641441</ele>
        <time>2021-03-28T16:51:50.814Z</time>
      </trkpt>
      <trkpt lat="47.14823" lon="6.28832">
        <ele>628.068851</ele>
        <time>2021-03-28T16:52:13.001Z</time>
      </trkpt>
      <trkpt lat="47.14794" lon="6.28877">
        <ele>629.641225</ele>
        <time>2021-03-28T16:52:27.138Z</time>
      </trkpt>
      <trkpt lat="47.14729" lon="6.28966">
        <ele>630.527929</ele>
        <time>2021-03-28T16:52:56.991Z</time>
      </trkpt>
      <trkpt lat="47.14686" lon="6.28922">
        <ele>631.009314</ele>
        <time>2021-03-28T16:53:15.230Z</time>
      </trkpt>
      <trkpt lat="47.14655" lon="6.28913">
        <ele>631.305097</ele>
        <time>2021-03-28T16:53:26.439Z</time>
      </trkpt>
      <trkpt lat="47.14641" lon="6.28888">
        <ele>631.49862</ele>
        <time>2021-03-28T16:53:34.008Z</time>
      </trkpt>
      <trkpt lat="47.1461" lon="6.28847">
        <ele>631.855946</ele>
        <time>2021-03-28T16:53:48.334Z</time>
      </trkpt>
      <trkpt lat="47.14609" lon="6.28844">
        <ele>631.876867</ele>
        <time>2021-03-28T16:53:49.187Z</time>
      </trkpt>
      <trkpt lat="47.14579" lon="6.28788">
        <ele>632.28961</ele>
        <time>2021-03-28T16:54:05.519Z</time>
      </trkpt>
      <trkpt lat="47.14566" lon="6.28762">
        <ele>632.482275</ele>
        <time>2021-03-28T16:54:13.109Z</time>
      </trkpt>
      <trkpt lat="47.14564" lon="6.28735">
        <ele>632.64266</ele>
        <time>2021-03-28T16:54:19.446Z</time>
      </trkpt>
      <trkpt lat="47.14554" lon="6.28696">
        <ele>632.888598</ele>
        <time>2021-03-28T16:54:29.137Z</time>
      </trkpt>
      <trkpt lat="47.1454" lon="6.28657">
        <ele>633.137136</ele>
        <time>2021-03-28T16:54:39.222Z</time>
      </trkpt>
      <trkpt lat="47.14546" lon="6.28632">
        <ele>633.286684</ele>
        <time>2021-03-28T16:54:45.346Z</time>
      </trkpt>
      <trkpt lat="47.14554" lon="6.28599">
        <ele>633.485015</ele>
        <time>2021-03-28T16:54:53.529Z</time>
      </trkpt>
      <trkpt lat="47.14529" lon="6.28512">
        <ele>634.010644</ele>
        <time>2021-03-28T16:55:15.268Z</time>
      </trkpt>
      <trkpt lat="47.14519" lon="6.28491">
        <ele>634.15651</ele>
        <time>2021-03-28T16:55:21.362Z</time>
      </trkpt>
      <trkpt lat="47.14536" lon="6.28473">
        <ele>634.326015</ele>
        <time>2021-03-28T16:55:28.486Z</time>
      </trkpt>
      <trkpt lat="47.14544" lon="6.28457">
        <ele>634.367285</ele>
        <time>2021-03-28T16:55:33.284Z</time>
      </trkpt>
      <trkpt lat="47.14544" lon="6.28438">
        <ele>634.132224</ele>
        <time>2021-03-28T16:55:37.610Z</time>
      </trkpt>
      <trkpt lat="47.1453" lon="6.28414">
        <ele>633.718811</ele>
        <time>2021-03-28T16:55:44.963Z</time>
      </trkpt>
      <trkpt lat="47.14494" lon="6.28391">
        <ele>632.982285</ele>
        <time>2021-03-28T16:55:57.202Z</time>
      </trkpt>
      <trkpt lat="47.14483" lon="6.28331">
        <ele>632.184143</ele>
        <time>2021-03-28T16:56:10.347Z</time>
      </trkpt>
      <trkpt lat="47.14414" lon="6.28302">
        <ele>630.736461</ele>
        <time>2021-03-28T16:56:32.041Z</time>
      </trkpt>
      <trkpt lat="47.14397" lon="6.28285">
        <ele>630.153768</ele>
        <time>2021-03-28T16:56:37.997Z</time>
      </trkpt>
      <trkpt lat="47.14393" lon="6.28252">
        <ele>629.498809</ele>
        <time>2021-03-28T16:56:42.056Z</time>
      </trkpt>
      <trkpt lat="47.1439" lon="6.28115">
        <ele>626.796889</ele>
        <time>2021-03-28T16:56:58.257Z</time>
      </trkpt>
      <trkpt lat="47.1439" lon="6.28115">
        <ele>626.796889</ele>
        <time>2021-03-28T16:56:58.260Z</time>
      </trkpt>
      <trkpt lat="47.14397" lon="6.28058">
        <ele>625.635872</ele>
        <time>2021-03-28T16:57:05.134Z</time>
      </trkpt>
      <trkpt lat="47.14423" lon="6.27994">
        <ele>624.083455</ele>
        <time>2021-03-28T16:57:13.997Z</time>
      </trkpt>
      <trkpt lat="47.14492" lon="6.27933">
        <ele>621.646296</ele>
        <time>2021-03-28T16:57:27.946Z</time>
      </trkpt>
      <trkpt lat="47.14504" lon="6.2792">
        <ele>621.181692</ele>
        <time>2021-03-28T16:57:30.664Z</time>
      </trkpt>
      <trkpt lat="47.14512" lon="6.27912">
        <ele>620.89596</ele>
        <time>2021-03-28T16:57:32.168Z</time>
      </trkpt>
      <trkpt lat="47.14468" lon="6.27833">
        <ele>618.607945</ele>
        <time>2021-03-28T16:57:43.403Z</time>
      </trkpt>
      <trkpt lat="47.14445" lon="6.27821">
        <ele>617.818149</ele>
        <time>2021-03-28T16:57:47.265Z</time>
      </trkpt>
      <trkpt lat="47.14408" lon="6.27763">
        <ele>615.978614</ele>
        <time>2021-03-28T16:57:56.049Z</time>
      </trkpt>
      <trkpt lat="47.14377" lon="6.27716">
        <ele>614.47691</ele>
        <time>2021-03-28T16:58:03.336Z</time>
      </trkpt>
      <trkpt lat="47.14359" lon="6.2769">
        <ele>613.533502</ele>
        <time>2021-03-28T16:58:07.305Z</time>
      </trkpt>
      <trkpt lat="47.14325" lon="6.27634">
        <ele>611.539904</ele>
        <time>2021-03-28T16:58:15.516Z</time>
      </trkpt>
      <trkpt lat="47.14325" lon="6.27634">
        <ele>611.539904</ele>
        <time>2021-03-28T16:58:15.563Z</time>
      </trkpt>
      <trkpt lat="47.14325" lon="6.27634">
        <ele>611.539904</ele>
        <time>2021-03-28T16:58:15.568Z</time>
      </trkpt>
      <trkpt lat="47.14273" lon="6.2753">
        <ele>608.127839</ele>
        <time>2021-03-28T16:58:38.361Z</time>
      </trkpt>
      <trkpt lat="47.1422" lon="6.27426">
        <ele>604.655417</ele>
        <time>2021-03-28T16:59:01.157Z</time>
      </trkpt>
      <trkpt lat="47.14167" lon="6.27323">
        <ele>601.163307</ele>
        <time>2021-03-28T16:59:23.951Z</time>
      </trkpt>
      <trkpt lat="47.14106" lon="6.27217">
        <ele>597.193516</ele>
        <time>2021-03-28T16:59:39.495Z</time>
      </trkpt>
      <trkpt lat="47.14086" lon="6.27192">
        <ele>596.063047</ele>
        <time>2021-03-28T16:59:43.792Z</time>
      </trkpt>
      <trkpt lat="47.14029" lon="6.27171">
        <ele>593.549317</ele>
        <time>2021-03-28T16:59:53.353Z</time>
      </trkpt>
      <trkpt lat="47.14011" lon="6.27156">
        <ele>592.649934</ele>
        <time>2021-03-28T16:59:56.748Z</time>
      </trkpt>
      <trkpt lat="47.13997" lon="6.27106">
        <ele>590.928213</ele>
        <time>2021-03-28T17:00:02.676Z</time>
      </trkpt>
      <trkpt lat="47.13941" lon="6.27003">
        <ele>586.705031</ele>
        <time>2021-03-28T17:00:16.942Z</time>
      </trkpt>
      <trkpt lat="47.13919" lon="6.26927">
        <ele>584.074806</ele>
        <time>2021-03-28T17:00:25.910Z</time>
      </trkpt>
      <trkpt lat="47.13916" lon="6.26883">
        <ele>583.013378</ele>
        <time>2021-03-28T17:00:30.781Z</time>
      </trkpt>
      <trkpt lat="47.13923" lon="6.26713">
        <ele>579.03558</ele>
        <time>2021-03-28T17:00:50.042Z</time>
      </trkpt>
      <trkpt lat="47.13913" lon="6.2665">
        <ele>577.818725</ele>
        <time>2021-03-28T17:00:58.169Z</time>
      </trkpt>
      <trkpt lat="47.13892" lon="6.26645">
        <ele>577.888485</ele>
        <time>2021-03-28T17:01:02.182Z</time>
      </trkpt>
      <trkpt lat="47.13833" lon="6.26614">
        <ele>578.093364</ele>
        <time>2021-03-28T17:01:15.726Z</time>
      </trkpt>
      <trkpt lat="47.13814" lon="6.26546">
        <ele>578.258943</ele>
        <time>2021-03-28T17:01:27.501Z</time>
      </trkpt>
      <trkpt lat="47.13814" lon="6.26529">
        <ele>578.295055</ele>
        <time>2021-03-28T17:01:30.189Z</time>
      </trkpt>
      <trkpt lat="47.13722" lon="6.26431">
        <ele>580.75436</ele>
        <time>2021-03-28T17:01:57.532Z</time>
      </trkpt>
      <trkpt lat="47.13693" lon="6.26412">
        <ele>581.618874</ele>
        <time>2021-03-28T17:02:05.308Z</time>
      </trkpt>
      <trkpt lat="47.13639" lon="6.26393">
        <ele>583.11207</ele>
        <time>2021-03-28T17:02:18.627Z</time>
      </trkpt>
      <trkpt lat="47.136" lon="6.26362">
        <ele>584.278567</ele>
        <time>2021-03-28T17:02:29.076Z</time>
      </trkpt>
      <trkpt lat="47.13652" lon="6.26137">
        <ele>588.650915</ele>
        <time>2021-03-28T17:03:07.819Z</time>
      </trkpt>
      <trkpt lat="47.13656" lon="6.26039">
        <ele>590.710416</ele>
        <time>2021-03-28T17:03:24.046Z</time>
      </trkpt>
      <trkpt lat="47.1365" lon="6.26035">
        <ele>590.901847</ele>
        <time>2021-03-28T17:03:26.372Z</time>
      </trkpt>
      <trkpt lat="47.13643" lon="6.26018">
        <ele>591.306676</ele>
        <time>2021-03-28T17:03:30.777Z</time>
      </trkpt>
      <trkpt lat="47.13617" lon="6.25996">
        <ele>592.244484</ele>
        <time>2021-03-28T17:03:41.076Z</time>
      </trkpt>
      <trkpt lat="47.13599" lon="6.25961">
        <ele>593.158203</ele>
        <time>2021-03-28T17:03:51.122Z</time>
      </trkpt>
      <trkpt lat="47.13578" lon="6.25929">
        <ele>594.121003</ele>
        <time>2021-03-28T17:04:01.436Z</time>
      </trkpt>
      <trkpt lat="47.13573" lon="6.25912">
        <ele>594.513607</ele>
        <time>2021-03-28T17:04:05.616Z</time>
      </trkpt>
      <trkpt lat="47.13554" lon="6.25828">
        <ele>596.440923</ele>
        <time>2021-03-28T17:04:25.958Z</time>
      </trkpt>
      <trkpt lat="47.13512" lon="6.25819">
        <ele>597.805144</ele>
        <time>2021-03-28T17:04:40.253Z</time>
      </trkpt>
      <trkpt lat="47.13479" lon="6.25823">
        <ele>598.846741</ele>
        <time>2021-03-28T17:04:51.206Z</time>
      </trkpt>
      <trkpt lat="47.13442" lon="6.25797">
        <ele>600.343267</ele>
        <time>2021-03-28T17:05:05.050Z</time>
      </trkpt>
      <trkpt lat="47.1342" lon="6.25764">
        <ele>601.533404</ele>
        <time>2021-03-28T17:05:15.715Z</time>
      </trkpt>
      <trkpt lat="47.13401" lon="6.25744">
        <ele>602.449523</ele>
        <time>2021-03-28T17:05:24.026Z</time>
      </trkpt>
      <trkpt lat="47.13388" lon="6.25731">
        <ele>603.045216</ele>
        <time>2021-03-28T17:05:29.213Z</time>
      </trkpt>
      <trkpt lat="47.13376" lon="6.25728">
        <ele>603.520714</ele>
        <time>2021-03-28T17:05:33.692Z</time>
      </trkpt>
      <trkpt lat="47.13348" lon="6.25734">
        <ele>604.634749</ele>
        <time>2021-03-28T17:05:43.411Z</time>
      </trkpt>
      <trkpt lat="47.13317" lon="6.25707">
        <ele>606.026293</ele>
        <time>2021-03-28T17:05:55.776Z</time>
      </trkpt>
      <trkpt lat="47.13316" lon="6.25706">
        <ele>606.071552</ele>
        <time>2021-03-28T17:05:56.601Z</time>
      </trkpt>
      <trkpt lat="47.13305" lon="6.25696">
        <ele>606.488956</ele>
        <time>2021-03-28T17:06:00.899Z</time>
      </trkpt>
      <trkpt lat="47.13269" lon="6.25679">
        <ele>607.627756</ele>
        <time>2021-03-28T17:06:13.720Z</time>
      </trkpt>
      <trkpt lat="47.1325" lon="6.25681">
        <ele>608.226727</ele>
        <time>2021-03-28T17:06:20.366Z</time>
      </trkpt>
      <trkpt lat="47.13236" lon="6.25675">
        <ele>608.667034</ele>
        <time>2021-03-28T17:06:25.537Z</time>
      </trkpt>
      <trkpt lat="47.13187" lon="6.25635">
        <ele>610.344543</ele>
        <time>2021-03-28T17:06:44.184Z</time>
      </trkpt>
      <trkpt lat="47.13153" lon="6.25629">
        <ele>611.372742</ele>
        <time>2021-03-28T17:06:55.608Z</time>
      </trkpt>
      <trkpt lat="47.13131" lon="6.25631">
        <ele>611.7774</ele>
        <time>2021-03-28T17:07:03.107Z</time>
      </trkpt>
      <trkpt lat="47.13097" lon="6.25662">
        <ele>612.122074</ele>
        <time>2021-03-28T17:07:16.825Z</time>
      </trkpt>
      <trkpt lat="47.13067" lon="6.257">
        <ele>612.460228</ele>
        <time>2021-03-28T17:07:30.331Z</time>
      </trkpt>
      <trkpt lat="47.13044" lon="6.25706">
        <ele>612.656482</ele>
        <time>2021-03-28T17:07:38.235Z</time>
      </trkpt>
      <trkpt lat="47.1299" lon="6.25685">
        <ele>613.130162</ele>
        <time>2021-03-28T17:07:57.390Z</time>
      </trkpt>
      <trkpt lat="47.12933" lon="6.25617">
        <ele>612.378111</ele>
        <time>2021-03-28T17:08:22.847Z</time>
      </trkpt>
      <trkpt lat="47.12898" lon="6.25587">
        <ele>611.860887</ele>
        <time>2021-03-28T17:08:36.484Z</time>
      </trkpt>
      <trkpt lat="47.12806" lon="6.25508">
        <ele>609.782551</ele>
        <time>2021-03-28T17:09:09.791Z</time>
      </trkpt>
      <trkpt lat="47.12731" lon="6.25446">
        <ele>606.76998</ele>
        <time>2021-03-28T17:09:34.298Z</time>
      </trkpt>
      <trkpt lat="47.12692" lon="6.25413">
        <ele>605.184382</ele>
        <time>2021-03-28T17:09:47.186Z</time>
      </trkpt>
      <trkpt lat="47.12669" lon="6.25394">
        <ele>604.426112</ele>
        <time>2021-03-28T17:09:54.622Z</time>
      </trkpt>
      <trkpt lat="47.126" lon="6.25293">
        <ele>602.507823</ele>
        <time>2021-03-28T17:10:24.064Z</time>
      </trkpt>
      <trkpt lat="47.12588" lon="6.2525">
        <ele>601.885033</ele>
        <time>2021-03-28T17:10:29.848Z</time>
      </trkpt>
      <trkpt lat="47.12521" lon="6.25063">
        <ele>601.511761</ele>
        <time>2021-03-28T17:11:01.035Z</time>
      </trkpt>
      <trkpt lat="47.12446" lon="6.2481">
        <ele>602.069359</ele>
        <time>2021-03-28T17:11:42.859Z</time>
      </trkpt>
      <trkpt lat="47.12431" lon="6.24755">
        <ele>602.154004</ele>
        <time>2021-03-28T17:11:51.144Z</time>
      </trkpt>
      <trkpt lat="47.12413" lon="6.24691">
        <ele>601.856169</ele>
        <time>2021-03-28T17:12:00.643Z</time>
      </trkpt>
      <trkpt lat="47.1239" lon="6.24639">
        <ele>601.025829</ele>
        <time>2021-03-28T17:12:08.531Z</time>
      </trkpt>
      <trkpt lat="47.1237" lon="6.24587">
        <ele>600.225736</ele>
        <time>2021-03-28T17:12:15.629Z</time>
      </trkpt>
      <trkpt lat="47.12312" lon="6.24481">
        <ele>598.470784</ele>
        <time>2021-03-28T17:12:31.165Z</time>
      </trkpt>
      <trkpt lat="47.12303" lon="6.24461">
        <ele>598.236813</ele>
        <time>2021-03-28T17:12:33.745Z</time>
      </trkpt>
      <trkpt lat="47.12297" lon="6.24467">
        <ele>598.13118</ele>
        <time>2021-03-28T17:12:34.986Z</time>
      </trkpt>
      <trkpt lat="47.12287" lon="6.24489">
        <ele>597.8729</ele>
        <time>2021-03-28T17:12:38.040Z</time>
      </trkpt>
      <trkpt lat="47.12279" lon="6.24517">
        <ele>597.578233</ele>
        <time>2021-03-28T17:12:41.554Z</time>
      </trkpt>
      <trkpt lat="47.12266" lon="6.24555">
        <ele>597.170585</ele>
        <time>2021-03-28T17:12:46.582Z</time>
      </trkpt>
      <trkpt lat="47.12224" lon="6.24683">
        <ele>596.514403</ele>
        <time>2021-03-28T17:13:06.637Z</time>
      </trkpt>
      <trkpt lat="47.12197" lon="6.24782">
        <ele>598.009541</ele>
        <time>2021-03-28T17:13:23.467Z</time>
      </trkpt>
      <trkpt lat="47.12193" lon="6.24797">
        <ele>598.230414</ele>
        <time>2021-03-28T17:13:26.032Z</time>
      </trkpt>
      <trkpt lat="47.12153" lon="6.24855">
        <ele>599.383508</ele>
        <time>2021-03-28T17:13:40.027Z</time>
      </trkpt>
      <trkpt lat="47.12102" lon="6.24908">
        <ele>600.859642</ele>
        <time>2021-03-28T17:13:56.151Z</time>
      </trkpt>
      <trkpt lat="47.12093" lon="6.24935">
        <ele>601.398523</ele>
        <time>2021-03-28T17:14:01.601Z</time>
      </trkpt>
      <trkpt lat="47.12089" lon="6.24975">
        <ele>602.081247</ele>
        <time>2021-03-28T17:14:08.309Z</time>
      </trkpt>
      <trkpt lat="47.12088" lon="6.24992">
        <ele>602.381412</ele>
        <time>2021-03-28T17:14:11.321Z</time>
      </trkpt>
      <trkpt lat="47.12087" lon="6.25015">
        <ele>602.772844</ele>
        <time>2021-03-28T17:14:15.126Z</time>
      </trkpt>
      <trkpt lat="47.12082" lon="6.25054">
        <ele>603.456831</ele>
        <time>2021-03-28T17:14:21.632Z</time>
      </trkpt>
      <trkpt lat="47.12072" lon="6.25089">
        <ele>604.116943</ele>
        <time>2021-03-28T17:14:27.727Z</time>
      </trkpt>
      <trkpt lat="47.12038" lon="6.25169">
        <ele>603.917522</ele>
        <time>2021-03-28T17:14:41.893Z</time>
      </trkpt>
      <trkpt lat="47.12017" lon="6.25221">
        <ele>603.630912</ele>
        <time>2021-03-28T17:14:50.870Z</time>
      </trkpt>
      <trkpt lat="47.11997" lon="6.25256">
        <ele>603.418372</ele>
        <time>2021-03-28T17:14:56.726Z</time>
      </trkpt>
      <trkpt lat="47.1197" lon="6.25286">
        <ele>603.181312</ele>
        <time>2021-03-28T17:15:03.104Z</time>
      </trkpt>
      <trkpt lat="47.11922" lon="6.25313">
        <ele>602.631168</ele>
        <time>2021-03-28T17:15:12.591Z</time>
      </trkpt>
      <trkpt lat="47.11897" lon="6.25332">
        <ele>602.27816</ele>
        <time>2021-03-28T17:15:17.738Z</time>
      </trkpt>
      <trkpt lat="47.11869" lon="6.25366">
        <ele>601.82021</ele>
        <time>2021-03-28T17:15:24.416Z</time>
      </trkpt>
      <trkpt lat="47.11836" lon="6.25435">
        <ele>601.090535</ele>
        <time>2021-03-28T17:15:36.412Z</time>
      </trkpt>
      <trkpt lat="47.11777" lon="6.25594">
        <ele>601.122415</ele>
        <time>2021-03-28T17:16:03.475Z</time>
      </trkpt>
      <trkpt lat="47.11745" lon="6.25688">
        <ele>601.364007</ele>
        <time>2021-03-28T17:16:19.789Z</time>
      </trkpt>
      <trkpt lat="47.11602" lon="6.25603">
        <ele>603.246059</ele>
        <time>2021-03-28T17:17:12.183Z</time>
      </trkpt>
      <trkpt lat="47.11602" lon="6.25603">
        <ele>603.246059</ele>
        <time>2021-03-28T17:17:12.198Z</time>
      </trkpt>
      <trkpt lat="47.11602" lon="6.25603">
        <ele>603.246059</ele>
        <time>2021-03-28T17:17:12.198Z</time>
      </trkpt>
      <trkpt lat="47.11548" lon="6.25602">
        <ele>603.995858</ele>
        <time>2021-03-28T17:17:26.058Z</time>
      </trkpt>
      <trkpt lat="47.11495" lon="6.25602">
        <ele>604.867195</ele>
        <time>2021-03-28T17:17:39.892Z</time>
      </trkpt>
      <trkpt lat="47.11495" lon="6.25602">
        <ele>604.867195</ele>
        <time>2021-03-28T17:17:39.910Z</time>
      </trkpt>
      <trkpt lat="47.11495" lon="6.25602">
        <ele>604.867195</ele>
        <time>2021-03-28T17:17:39.912Z</time>
      </trkpt>
      <trkpt lat="47.11448" lon="6.25541">
        <ele>605.886774</ele>
        <time>2021-03-28T17:17:56.122Z</time>
      </trkpt>
      <trkpt lat="47.11401" lon="6.25481">
        <ele>606.864626</ele>
        <time>2021-03-28T17:18:12.319Z</time>
      </trkpt>
      <trkpt lat="47.11354" lon="6.2542">
        <ele>607.736452</ele>
        <time>2021-03-28T17:18:28.514Z</time>
      </trkpt>
      <trkpt lat="47.11341" lon="6.25386">
        <ele>608.104135</ele>
        <time>2021-03-28T17:18:37.452Z</time>
      </trkpt>
      <trkpt lat="47.10914" lon="6.25021">
        <ele>615.11319</ele>
        <time>2021-03-28T17:21:24.501Z</time>
      </trkpt>
      <trkpt lat="47.10875" lon="6.25007">
        <ele>615.740555</ele>
        <time>2021-03-28T17:21:37.888Z</time>
      </trkpt>
      <trkpt lat="47.10804" lon="6.25018">
        <ele>616.881988</ele>
        <time>2021-03-28T17:22:02.068Z</time>
      </trkpt>
      <trkpt lat="47.10788" lon="6.25016">
        <ele>617.246157</ele>
        <time>2021-03-28T17:22:07.584Z</time>
      </trkpt>
      <trkpt lat="47.10737" lon="6.25009">
        <ele>618.664398</ele>
        <time>2021-03-28T17:22:24.708Z</time>
      </trkpt>
      <trkpt lat="47.10708" lon="6.24993">
        <ele>619.51553</ele>
        <time>2021-03-28T17:22:34.993Z</time>
      </trkpt>
      <trkpt lat="47.10693" lon="6.25024">
        <ele>620.219243</ele>
        <time>2021-03-28T17:22:41.268Z</time>
      </trkpt>
      <trkpt lat="47.10673" lon="6.25021">
        <ele>620.777079</ele>
        <time>2021-03-28T17:22:46.223Z</time>
      </trkpt>
      <trkpt lat="47.10639" lon="6.25029">
        <ele>621.734343</ele>
        <time>2021-03-28T17:22:54.681Z</time>
      </trkpt>
      <trkpt lat="47.1062" lon="6.25049">
        <ele>622.486616</ele>
        <time>2021-03-28T17:23:00.369Z</time>
      </trkpt>
      <trkpt lat="47.10568" lon="6.25138">
        <ele>625.341218</ele>
        <time>2021-03-28T17:23:20.601Z</time>
      </trkpt>
      <trkpt lat="47.10551" lon="6.25151">
        <ele>626.050407</ele>
        <time>2021-03-28T17:23:25.594Z</time>
      </trkpt>
      <trkpt lat="47.10525" lon="6.25157">
        <ele>626.985941</ele>
        <time>2021-03-28T17:23:32.060Z</time>
      </trkpt>
      <trkpt lat="47.10403" lon="6.25097">
        <ele>630.630639</ele>
        <time>2021-03-28T17:24:03.312Z</time>
      </trkpt>
      <trkpt lat="47.10327" lon="6.2503">
        <ele>632.872976</ele>
        <time>2021-03-28T17:24:24.379Z</time>
      </trkpt>
      <trkpt lat="47.10281" lon="6.24998">
        <ele>632.749391</ele>
        <time>2021-03-28T17:24:35.880Z</time>
      </trkpt>
      <trkpt lat="47.10231" lon="6.2497">
        <ele>632.534733</ele>
        <time>2021-03-28T17:24:46.877Z</time>
      </trkpt>
      <trkpt lat="47.10211" lon="6.24968">
        <ele>632.454294</ele>
        <time>2021-03-28T17:24:50.785Z</time>
      </trkpt>
      <trkpt lat="47.10163" lon="6.24963">
        <ele>632.260825</ele>
        <time>2021-03-28T17:24:59.795Z</time>
      </trkpt>
      <trkpt lat="47.10118" lon="6.24959">
        <ele>631.16498</ele>
        <time>2021-03-28T17:25:07.318Z</time>
      </trkpt>
      <trkpt lat="47.10004" lon="6.2494">
        <ele>627.689898</ele>
        <time>2021-03-28T17:25:25.668Z</time>
      </trkpt>
      <trkpt lat="47.09986" lon="6.2494">
        <ele>627.13811</ele>
        <time>2021-03-28T17:25:28.459Z</time>
      </trkpt>
      <trkpt lat="47.09849" lon="6.24963">
        <ele>626.426308</ele>
        <time>2021-03-28T17:25:52.878Z</time>
      </trkpt>
      <trkpt lat="47.09831" lon="6.24961">
        <ele>626.375462</ele>
        <time>2021-03-28T17:25:57.320Z</time>
      </trkpt>
      <trkpt lat="47.09815" lon="6.24956">
        <ele>626.33194</ele>
        <time>2021-03-28T17:26:01.118Z</time>
      </trkpt>
      <trkpt lat="47.09807" lon="6.24955">
        <ele>626.309894</ele>
        <time>2021-03-28T17:26:03.344Z</time>
      </trkpt>
      <trkpt lat="47.09788" lon="6.2496">
        <ele>626.78238</ele>
        <time>2021-03-28T17:26:08.214Z</time>
      </trkpt>
      <trkpt lat="47.09779" lon="6.24972">
        <ele>627.567344</ele>
        <time>2021-03-28T17:26:11.317Z</time>
      </trkpt>
      <trkpt lat="47.09771" lon="6.24997">
        <ele>628.806731</ele>
        <time>2021-03-28T17:26:16.374Z</time>
      </trkpt>
      <trkpt lat="47.09767" lon="6.25009">
        <ele>629.41731</ele>
        <time>2021-03-28T17:26:18.752Z</time>
      </trkpt>
      <trkpt lat="47.09763" lon="6.25046">
        <ele>631.127247</ele>
        <time>2021-03-28T17:26:26.209Z</time>
      </trkpt>
      <trkpt lat="47.09759" lon="6.25083">
        <ele>632.871821</ele>
        <time>2021-03-28T17:26:36.257Z</time>
      </trkpt>
      <trkpt lat="47.09759" lon="6.25127">
        <ele>634.887123</ele>
        <time>2021-03-28T17:26:48.055Z</time>
      </trkpt>
      <trkpt lat="47.09769" lon="6.2519">
        <ele>637.801708</ele>
        <time>2021-03-28T17:27:06.548Z</time>
      </trkpt>
      <trkpt lat="47.09779" lon="6.25203">
        <ele>638.907477</ele>
        <time>2021-03-28T17:27:12.464Z</time>
      </trkpt>
      <trkpt lat="47.09792" lon="6.25207">
        <ele>640.159145</ele>
        <time>2021-03-28T17:27:18.213Z</time>
      </trkpt>
      <trkpt lat="47.09811" lon="6.25227">
        <ele>642.407427</ele>
        <time>2021-03-28T17:27:28.595Z</time>
      </trkpt>
      <trkpt lat="47.09784" lon="6.25279">
        <ele>646.636619</ele>
        <time>2021-03-28T17:27:48.532Z</time>
      </trkpt>
      <trkpt lat="47.09773" lon="6.25309">
        <ele>648.845056</ele>
        <time>2021-03-28T17:27:58.847Z</time>
      </trkpt>
      <trkpt lat="47.09751" lon="6.25364">
        <ele>652.951654</ele>
        <time>2021-03-28T17:28:17.480Z</time>
      </trkpt>
      <trkpt lat="47.09729" lon="6.25429">
        <ele>657.219176</ele>
        <time>2021-03-28T17:28:38.455Z</time>
      </trkpt>
      <trkpt lat="47.09723" lon="6.25455">
        <ele>658.641499</ele>
        <time>2021-03-28T17:28:46.509Z</time>
      </trkpt>
      <trkpt lat="47.09696" lon="6.25536">
        <ele>663.329827</ele>
        <time>2021-03-28T17:29:11.444Z</time>
      </trkpt>
      <trkpt lat="47.09651" lon="6.25719">
        <ele>671.054479</ele>
        <time>2021-03-28T17:30:01.097Z</time>
      </trkpt>
      <trkpt lat="47.09609" lon="6.25783">
        <ele>673.095532</ele>
        <time>2021-03-28T17:30:21.535Z</time>
      </trkpt>
      <trkpt lat="47.09599" lon="6.25796">
        <ele>673.544384</ele>
        <time>2021-03-28T17:30:26.033Z</time>
      </trkpt>
      <trkpt lat="47.09578" lon="6.25822">
        <ele>674.461201</ele>
        <time>2021-03-28T17:30:35.292Z</time>
      </trkpt>
      <trkpt lat="47.09514" lon="6.25881">
        <ele>675.194981</ele>
        <time>2021-03-28T17:31:01.445Z</time>
      </trkpt>
      <trkpt lat="47.09458" lon="6.25961">
        <ele>675.177813</ele>
        <time>2021-03-28T17:31:28.295Z</time>
      </trkpt>
      <trkpt lat="47.0945" lon="6.25984">
        <ele>675.173848</ele>
        <time>2021-03-28T17:31:34.310Z</time>
      </trkpt>
      <trkpt lat="47.09435" lon="6.2601">
        <ele>675.168664</ele>
        <time>2021-03-28T17:31:42.420Z</time>
      </trkpt>
      <trkpt lat="47.09372" lon="6.2607">
        <ele>676.016091</ele>
        <time>2021-03-28T17:32:08.155Z</time>
      </trkpt>
      <trkpt lat="47.0936" lon="6.26075">
        <ele>676.169521</ele>
        <time>2021-03-28T17:32:12.336Z</time>
      </trkpt>
      <trkpt lat="47.09356" lon="6.26083">
        <ele>676.259653</ele>
        <time>2021-03-28T17:32:14.804Z</time>
      </trkpt>
      <trkpt lat="47.09331" lon="6.26101">
        <ele>676.606661</ele>
        <time>2021-03-28T17:32:24.266Z</time>
      </trkpt>
      <trkpt lat="47.09284" lon="6.26161">
        <ele>677.387688</ele>
        <time>2021-03-28T17:32:45.090Z</time>
      </trkpt>
      <trkpt lat="47.09279" lon="6.2618">
        <ele>677.687986</ele>
        <time>2021-03-28T17:32:49.776Z</time>
      </trkpt>
      <trkpt lat="47.09279" lon="6.26182">
        <ele>677.723654</ele>
        <time>2021-03-28T17:32:50.410Z</time>
      </trkpt>
      <trkpt lat="47.09265" lon="6.26265">
        <ele>679.148173</ele>
        <time>2021-03-28T17:33:10.008Z</time>
      </trkpt>
      <trkpt lat="47.09276" lon="6.26311">
        <ele>679.946</ele>
        <time>2021-03-28T17:33:20.975Z</time>
      </trkpt>
      <trkpt lat="47.09275" lon="6.26387">
        <ele>681.211118</ele>
        <time>2021-03-28T17:33:38.381Z</time>
      </trkpt>
      <trkpt lat="47.09279" lon="6.26413">
        <ele>681.656465</ele>
        <time>2021-03-28T17:33:44.513Z</time>
      </trkpt>
      <trkpt lat="47.09379" lon="6.26576">
        <ele>684.224973</ele>
        <time>2021-03-28T17:34:34.766Z</time>
      </trkpt>
      <trkpt lat="47.09489" lon="6.26735">
        <ele>684.172657</ele>
        <time>2021-03-28T17:35:27.719Z</time>
      </trkpt>
      <trkpt lat="47.09507" lon="6.26774">
        <ele>683.98537</ele>
        <time>2021-03-28T17:35:38.312Z</time>
      </trkpt>
      <trkpt lat="47.0953" lon="6.26852">
        <ele>682.793482</ele>
        <time>2021-03-28T17:35:55.473Z</time>
      </trkpt>
      <trkpt lat="47.09558" lon="6.26908">
        <ele>680.998259</ele>
        <time>2021-03-28T17:36:09.387Z</time>
      </trkpt>
      <trkpt lat="47.09566" lon="6.26932">
        <ele>680.290559</ele>
        <time>2021-03-28T17:36:14.613Z</time>
      </trkpt>
      <trkpt lat="47.09576" lon="6.26973">
        <ele>679.172564</ele>
        <time>2021-03-28T17:36:23.256Z</time>
      </trkpt>
      <trkpt lat="47.09578" lon="6.26981">
        <ele>678.95214</ele>
        <time>2021-03-28T17:36:24.745Z</time>
      </trkpt>
      <trkpt lat="47.09583" lon="6.27044">
        <ele>677.326663</ele>
        <time>2021-03-28T17:36:36.946Z</time>
      </trkpt>
      <trkpt lat="47.09595" lon="6.27111">
        <ele>675.703596</ele>
        <time>2021-03-28T17:36:50.216Z</time>
      </trkpt>
      <trkpt lat="47.09609" lon="6.27178">
        <ele>674.099963</ele>
        <time>2021-03-28T17:37:03.665Z</time>
      </trkpt>
      <trkpt lat="47.09641" lon="6.27285">
        <ele>671.426589</ele>
        <time>2021-03-28T17:37:27.643Z</time>
      </trkpt>
      <trkpt lat="47.09644" lon="6.27303">
        <ele>671.01505</ele>
        <time>2021-03-28T17:37:31.388Z</time>
      </trkpt>
      <trkpt lat="47.09648" lon="6.27323">
        <ele>670.833751</ele>
        <time>2021-03-28T17:37:36.205Z</time>
      </trkpt>
      <trkpt lat="47.09657" lon="6.2735">
        <ele>670.629432</ele>
        <time>2021-03-28T17:37:42.819Z</time>
      </trkpt>
      <trkpt lat="47.09699" lon="6.27406">
        <ele>670.075687</ele>
        <time>2021-03-28T17:38:01.763Z</time>
      </trkpt>
      <trkpt lat="47.09704" lon="6.2744">
        <ele>669.838453</ele>
        <time>2021-03-28T17:38:09.954Z</time>
      </trkpt>
      <trkpt lat="47.09702" lon="6.27496">
        <ele>669.461823</ele>
        <time>2021-03-28T17:38:23.188Z</time>
      </trkpt>
      <trkpt lat="47.09713" lon="6.27528">
        <ele>669.227166</ele>
        <time>2021-03-28T17:38:31.425Z</time>
      </trkpt>
      <trkpt lat="47.09787" lon="6.27675">
        <ele>668.519049</ele>
        <time>2021-03-28T17:39:14.667Z</time>
      </trkpt>
      <trkpt lat="47.09812" lon="6.27712">
        <ele>668.323988</ele>
        <time>2021-03-28T17:39:26.635Z</time>
      </trkpt>
      <trkpt lat="47.09843" lon="6.27743">
        <ele>668.020971</ele>
        <time>2021-03-28T17:39:39.222Z</time>
      </trkpt>
      <trkpt lat="47.09859" lon="6.2777">
        <ele>667.71404</ele>
        <time>2021-03-28T17:39:47.354Z</time>
      </trkpt>
      <trkpt lat="47.0986" lon="6.2779">
        <ele>667.548519</ele>
        <time>2021-03-28T17:39:51.744Z</time>
      </trkpt>
      <trkpt lat="47.09898" lon="6.27846">
        <ele>666.885602</ele>
        <time>2021-03-28T17:40:09.204Z</time>
      </trkpt>
      <trkpt lat="47.09905" lon="6.27867">
        <ele>666.682634</ele>
        <time>2021-03-28T17:40:14.514Z</time>
      </trkpt>
      <trkpt lat="47.09932" lon="6.27938">
        <ele>665.993105</ele>
        <time>2021-03-28T17:40:32.793Z</time>
      </trkpt>
      <trkpt lat="47.10049" lon="6.28101">
        <ele>664.598919</ele>
        <time>2021-03-28T17:41:27.741Z</time>
      </trkpt>
      <trkpt lat="47.10102" lon="6.28185">
        <ele>664.697765</ele>
        <time>2021-03-28T17:41:54.817Z</time>
      </trkpt>
      <trkpt lat="47.10118" lon="6.28218">
        <ele>664.840681</ele>
        <time>2021-03-28T17:42:04.339Z</time>
      </trkpt>
      <trkpt lat="47.10133" lon="6.28284">
        <ele>665.084581</ele>
        <time>2021-03-28T17:42:20.533Z</time>
      </trkpt>
      <trkpt lat="47.10146" lon="6.28306">
        <ele>665.187787</ele>
        <time>2021-03-28T17:42:27.315Z</time>
      </trkpt>
      <trkpt lat="47.10162" lon="6.28325">
        <ele>665.29266</ele>
        <time>2021-03-28T17:42:34.213Z</time>
      </trkpt>
      <trkpt lat="47.10111" lon="6.28388">
        <ele>666.571495</ele>
        <time>2021-03-28T17:42:56.858Z</time>
      </trkpt>
      <trkpt lat="47.10083" lon="6.28424">
        <ele>667.354866</ele>
        <time>2021-03-28T17:43:09.271Z</time>
      </trkpt>
      <trkpt lat="47.10065" lon="6.28459">
        <ele>667.993266</ele>
        <time>2021-03-28T17:43:19.375Z</time>
      </trkpt>
      <trkpt lat="47.09911" lon="6.28794">
        <ele>675.473716</ele>
        <time>2021-03-28T17:44:51.717Z</time>
      </trkpt>
      <trkpt lat="47.09894" lon="6.28832">
        <ele>676.608532</ele>
        <time>2021-03-28T17:45:02.159Z</time>
      </trkpt>
      <trkpt lat="47.09921" lon="6.28855">
        <ele>677.743727</ele>
        <time>2021-03-28T17:45:09.889Z</time>
      </trkpt>
      <trkpt lat="47.09915" lon="6.28864">
        <ele>678.043659</ele>
        <time>2021-03-28T17:45:12.914Z</time>
      </trkpt>
      <trkpt lat="47.09767" lon="6.29083">
        <ele>687.039767</ele>
        <time>2021-03-28T17:46:25.657Z</time>
      </trkpt>
      <trkpt lat="47.09601" lon="6.29578">
        <ele>707.087906</ele>
        <time>2021-03-28T17:48:39.874Z</time>
      </trkpt>
      <trkpt lat="47.0959" lon="6.29609">
        <ele>708.433165</ele>
        <time>2021-03-28T17:48:48.704Z</time>
      </trkpt>
      <trkpt lat="47.0959" lon="6.29617">
        <ele>708.882885</ele>
        <time>2021-03-28T17:48:51.390Z</time>
      </trkpt>
      <trkpt lat="47.09647" lon="6.29677">
        <ele>714.195657</ele>
        <time>2021-03-28T17:49:18.765Z</time>
      </trkpt>
      <trkpt lat="47.09705" lon="6.29726">
        <ele>719.222019</ele>
        <time>2021-03-28T17:49:45.586Z</time>
      </trkpt>
      <trkpt lat="47.09815" lon="6.29866">
        <ele>730.435209</ele>
        <time>2021-03-28T17:50:44.171Z</time>
      </trkpt>
      <trkpt lat="47.09883" lon="6.29908">
        <ele>736.112672</ele>
        <time>2021-03-28T17:51:13.456Z</time>
      </trkpt>
      <trkpt lat="47.09933" lon="6.29955">
        <ele>739.847141</ele>
        <time>2021-03-28T17:51:36.099Z</time>
      </trkpt>
      <trkpt lat="47.09978" lon="6.30024">
        <ele>743.950865</ele>
        <time>2021-03-28T17:52:00.369Z</time>
      </trkpt>
      <trkpt lat="47.10046" lon="6.30128">
        <ele>748.724368</ele>
        <time>2021-03-28T17:52:35.969Z</time>
      </trkpt>
      <trkpt lat="47.1012" lon="6.30245">
        <ele>752.140239</ele>
        <time>2021-03-28T17:53:12.576Z</time>
      </trkpt>
      <trkpt lat="47.10099" lon="6.30254">
        <ele>752.837176</ele>
        <time>2021-03-28T17:53:17.664Z</time>
      </trkpt>
      <trkpt lat="47.0987" lon="6.30355">
        <ele>750.914678</ele>
        <time>2021-03-28T17:54:04.192Z</time>
      </trkpt>
      <trkpt lat="47.09745" lon="6.30418">
        <ele>748.700354</ele>
        <time>2021-03-28T17:54:26.868Z</time>
      </trkpt>
      <trkpt lat="47.09717" lon="6.30439">
        <ele>748.561004</ele>
        <time>2021-03-28T17:54:32.543Z</time>
      </trkpt>
      <trkpt lat="47.09661" lon="6.30491">
        <ele>748.271431</ele>
        <time>2021-03-28T17:54:45.697Z</time>
      </trkpt>
      <trkpt lat="47.0966" lon="6.30492">
        <ele>748.262193</ele>
        <time>2021-03-28T17:54:46.155Z</time>
      </trkpt>
      <trkpt lat="47.09618" lon="6.30532">
        <ele>748.045841</ele>
        <time>2021-03-28T17:54:56.688Z</time>
      </trkpt>
      <trkpt lat="47.09589" lon="6.30565">
        <ele>748.170431</ele>
        <time>2021-03-28T17:55:04.964Z</time>
      </trkpt>
      <trkpt lat="47.09594" lon="6.3059">
        <ele>748.482755</ele>
        <time>2021-03-28T17:55:11.102Z</time>
      </trkpt>
      <trkpt lat="47.0964" lon="6.30868">
        <ele>751.592487</ele>
        <time>2021-03-28T17:56:16.678Z</time>
      </trkpt>
      <trkpt lat="47.09651" lon="6.30965">
        <ele>752.386946</ele>
        <time>2021-03-28T17:56:39.219Z</time>
      </trkpt>
      <trkpt lat="47.09716" lon="6.31171">
        <ele>753.272094</ele>
        <time>2021-03-28T17:57:32.758Z</time>
      </trkpt>
      <trkpt lat="47.09748" lon="6.31359">
        <ele>752.985666</ele>
        <time>2021-03-28T17:58:18.502Z</time>
      </trkpt>
      <trkpt lat="47.09748" lon="6.31378">
        <ele>752.865414</ele>
        <time>2021-03-28T17:58:22.984Z</time>
      </trkpt>
      <trkpt lat="47.09723" lon="6.31435">
        <ele>752.43627</ele>
        <time>2021-03-28T17:58:38.868Z</time>
      </trkpt>
      <trkpt lat="47.09716" lon="6.31497">
        <ele>752.039667</ele>
        <time>2021-03-28T17:58:53.479Z</time>
      </trkpt>
      <trkpt lat="47.09726" lon="6.31567">
        <ele>751.356214</ele>
        <time>2021-03-28T17:59:09.486Z</time>
      </trkpt>
      <trkpt lat="47.09713" lon="6.31591">
        <ele>750.695384</ele>
        <time>2021-03-28T17:59:15.945Z</time>
      </trkpt>
      <trkpt lat="47.09656" lon="6.31682">
        <ele>748.078828</ele>
        <time>2021-03-28T17:59:41.004Z</time>
      </trkpt>
      <trkpt lat="47.0964" lon="6.31707">
        <ele>747.360144</ele>
        <time>2021-03-28T17:59:47.573Z</time>
      </trkpt>
      <trkpt lat="47.09631" lon="6.31732">
        <ele>746.772102</ele>
        <time>2021-03-28T17:59:53.092Z</time>
      </trkpt>
      <trkpt lat="47.09604" lon="6.31798">
        <ele>744.907569</ele>
        <time>2021-03-28T18:00:08.089Z</time>
      </trkpt>
      <trkpt lat="47.09604" lon="6.31815">
        <ele>744.450215</ele>
        <time>2021-03-28T18:00:11.595Z</time>
      </trkpt>
      <trkpt lat="47.09577" lon="6.31883">
        <ele>742.407262</ele>
        <time>2021-03-28T18:00:26.728Z</time>
      </trkpt>
      <trkpt lat="47.09547" lon="6.31944">
        <ele>740.46</ele>
        <time>2021-03-28T18:00:41.358Z</time>
      </trkpt>
      <trkpt lat="47.09467" lon="6.32078">
        <ele>736.267924</ele>
        <time>2021-03-28T18:01:17.669Z</time>
      </trkpt>
      <trkpt lat="47.09463" lon="6.32092">
        <ele>735.921236</ele>
        <time>2021-03-28T18:01:20.722Z</time>
      </trkpt>
      <trkpt lat="47.09447" lon="6.32102">
        <ele>735.345416</ele>
        <time>2021-03-28T18:01:25.844Z</time>
      </trkpt>
      <trkpt lat="47.09433" lon="6.32111">
        <ele>734.829256</ele>
        <time>2021-03-28T18:01:30.359Z</time>
      </trkpt>
      <trkpt lat="47.09404" lon="6.32119">
        <ele>733.83798</ele>
        <time>2021-03-28T18:01:39.008Z</time>
      </trkpt>
      <trkpt lat="47.09397" lon="6.32126">
        <ele>733.565842</ele>
        <time>2021-03-28T18:01:41.347Z</time>
      </trkpt>
      <trkpt lat="47.0938" lon="6.32139">
        <ele>732.854102</ele>
        <time>2021-03-28T18:01:46.862Z</time>
      </trkpt>
      <trkpt lat="47.09362" lon="6.32167">
        <ele>731.752107</ele>
        <time>2021-03-28T18:01:51.198Z</time>
      </trkpt>
      <trkpt lat="47.09344" lon="6.32197">
        <ele>730.627806</ele>
        <time>2021-03-28T18:01:55.665Z</time>
      </trkpt>
      <trkpt lat="47.09332" lon="6.3223">
        <ele>729.595289</ele>
        <time>2021-03-28T18:01:59.750Z</time>
      </trkpt>
      <trkpt lat="47.09323" lon="6.32304">
        <ele>727.455424</ele>
        <time>2021-03-28T18:02:08.046Z</time>
      </trkpt>
      <trkpt lat="47.09312" lon="6.32339">
        <ele>726.368994</ele>
        <time>2021-03-28T18:02:12.257Z</time>
      </trkpt>
      <trkpt lat="47.09289" lon="6.3239">
        <ele>725.260813</ele>
        <time>2021-03-28T18:02:19.246Z</time>
      </trkpt>
      <trkpt lat="47.09271" lon="6.32415">
        <ele>724.783206</ele>
        <time>2021-03-28T18:02:23.478Z</time>
      </trkpt>
      <trkpt lat="47.09252" lon="6.32425">
        <ele>724.393866</ele>
        <time>2021-03-28T18:02:27.068Z</time>
      </trkpt>
      <trkpt lat="47.09224" lon="6.32422">
        <ele>723.858089</ele>
        <time>2021-03-28T18:02:32.338Z</time>
      </trkpt>
      <trkpt lat="47.09209" lon="6.32431">
        <ele>723.537408</ele>
        <time>2021-03-28T18:02:35.292Z</time>
      </trkpt>
      <trkpt lat="47.092" lon="6.3244">
        <ele>723.331558</ele>
        <time>2021-03-28T18:02:37.665Z</time>
      </trkpt>
      <trkpt lat="47.09163" lon="6.32542">
        <ele>722.549015</ele>
        <time>2021-03-28T18:02:54.524Z</time>
      </trkpt>
      <trkpt lat="47.09126" lon="6.32613">
        <ele>723.031852</ele>
        <time>2021-03-28T18:03:08.360Z</time>
      </trkpt>
      <trkpt lat="47.09025" lon="6.32717">
        <ele>724.302244</ele>
        <time>2021-03-28T18:03:37.422Z</time>
      </trkpt>
      <trkpt lat="47.08953" lon="6.3281">
        <ele>725.956462</ele>
        <time>2021-03-28T18:04:00.224Z</time>
      </trkpt>
      <trkpt lat="47.08914" lon="6.32931">
        <ele>727.202807</ele>
        <time>2021-03-28T18:04:22.253Z</time>
      </trkpt>
      <trkpt lat="47.08892" lon="6.32961">
        <ele>727.467281</ele>
        <time>2021-03-28T18:04:29.439Z</time>
      </trkpt>
      <trkpt lat="47.08876" lon="6.32967">
        <ele>727.612632</ele>
        <time>2021-03-28T18:04:32.981Z</time>
      </trkpt>
      <trkpt lat="47.08864" lon="6.32972">
        <ele>727.724284</ele>
        <time>2021-03-28T18:04:36.215Z</time>
      </trkpt>
      <trkpt lat="47.08867" lon="6.32993">
        <ele>727.856321</ele>
        <time>2021-03-28T18:04:41.382Z</time>
      </trkpt>
      <trkpt lat="47.08882" lon="6.33085">
        <ele>728.420218</ele>
        <time>2021-03-28T18:05:03.584Z</time>
      </trkpt>
      <trkpt lat="47.08893" lon="6.33132">
        <ele>727.818941</ele>
        <time>2021-03-28T18:05:15.243Z</time>
      </trkpt>
      <trkpt lat="47.08908" lon="6.33165">
        <ele>727.264177</ele>
        <time>2021-03-28T18:05:24.269Z</time>
      </trkpt>
      <trkpt lat="47.08915" lon="6.33169">
        <ele>727.093831</ele>
        <time>2021-03-28T18:05:27.039Z</time>
      </trkpt>
      <trkpt lat="47.08947" lon="6.33164">
        <ele>726.433823</ele>
        <time>2021-03-28T18:05:36.644Z</time>
      </trkpt>
      <trkpt lat="47.09003" lon="6.33225">
        <ele>725.021467</ele>
        <time>2021-03-28T18:05:57.257Z</time>
      </trkpt>
      <trkpt lat="47.09114" lon="6.33409">
        <ele>720.689392</ele>
        <time>2021-03-28T18:06:47.835Z</time>
      </trkpt>
      <trkpt lat="47.09174" lon="6.33474">
        <ele>719.583618</ele>
        <time>2021-03-28T18:07:11.320Z</time>
      </trkpt>
      <trkpt lat="47.09186" lon="6.33503">
        <ele>719.370418</ele>
        <time>2021-03-28T18:07:19.082Z</time>
      </trkpt>
      <trkpt lat="47.09201" lon="6.33528">
        <ele>719.165687</ele>
        <time>2021-03-28T18:07:26.393Z</time>
      </trkpt>
      <trkpt lat="47.09201" lon="6.33528">
        <ele>719.161244</ele>
        <time>2021-03-28T18:07:26.560Z</time>
      </trkpt>
      <trkpt lat="47.09253" lon="6.3358">
        <ele>718.587507</ele>
        <time>2021-03-28T18:07:48.221Z</time>
      </trkpt>
      <trkpt lat="47.09313" lon="6.33652">
        <ele>718.085737</ele>
        <time>2021-03-28T18:08:14.910Z</time>
      </trkpt>
      <trkpt lat="47.09353" lon="6.33714">
        <ele>717.772292</ele>
        <time>2021-03-28T18:08:34.815Z</time>
      </trkpt>
      <trkpt lat="47.09373" lon="6.33772">
        <ele>717.533146</ele>
        <time>2021-03-28T18:08:49.380Z</time>
      </trkpt>
      <trkpt lat="47.09382" lon="6.33814">
        <ele>717.018111</ele>
        <time>2021-03-28T18:08:54.466Z</time>
      </trkpt>
      <trkpt lat="47.09388" lon="6.33844">
        <ele>716.084002</ele>
        <time>2021-03-28T18:08:58.032Z</time>
      </trkpt>
      <trkpt lat="47.09394" lon="6.33879">
        <ele>714.965223</ele>
        <time>2021-03-28T18:09:02.173Z</time>
      </trkpt>
      <trkpt lat="47.09413" lon="6.33921">
        <ele>713.423445</ele>
        <time>2021-03-28T18:09:07.804Z</time>
      </trkpt>
      <trkpt lat="47.09432" lon="6.33962">
        <ele>711.919481</ele>
        <time>2021-03-28T18:09:13.117Z</time>
      </trkpt>
      <trkpt lat="47.0945" lon="6.3395">
        <ele>711.067147</ele>
        <time>2021-03-28T18:09:16.118Z</time>
      </trkpt>
      <trkpt lat="47.0946" lon="6.33946">
        <ele>710.574361</ele>
        <time>2021-03-28T18:09:17.774Z</time>
      </trkpt>
      <trkpt lat="47.09475" lon="6.33976">
        <ele>709.438153</ele>
        <time>2021-03-28T18:09:21.785Z</time>
      </trkpt>
      <trkpt lat="47.09479" lon="6.33972">
        <ele>709.214402</ele>
        <time>2021-03-28T18:09:22.617Z</time>
      </trkpt>
      <trkpt lat="47.09528" lon="6.33925">
        <ele>707.025787</ele>
        <time>2021-03-28T18:09:31.658Z</time>
      </trkpt>
      <trkpt lat="47.09539" lon="6.3392">
        <ele>706.595659</ele>
        <time>2021-03-28T18:09:33.432Z</time>
      </trkpt>
      <trkpt lat="47.09539" lon="6.33928">
        <ele>706.384174</ele>
        <time>2021-03-28T18:09:34.243Z</time>
      </trkpt>
      <trkpt lat="47.09592" lon="6.34062">
        <ele>702.535114</ele>
        <time>2021-03-28T18:09:52.317Z</time>
      </trkpt>
      <trkpt lat="47.09614" lon="6.34095">
        <ele>702.159127</ele>
        <time>2021-03-28T18:09:58.153Z</time>
      </trkpt>
      <trkpt lat="47.09618" lon="6.34102">
        <ele>702.081742</ele>
        <time>2021-03-28T18:09:59.214Z</time>
      </trkpt>
      <trkpt lat="47.09641" lon="6.34131">
        <ele>701.717487</ele>
        <time>2021-03-28T18:10:04.896Z</time>
      </trkpt>
      <trkpt lat="47.09643" lon="6.34133">
        <ele>701.683384</ele>
        <time>2021-03-28T18:10:05.372Z</time>
      </trkpt>
      <trkpt lat="47.09651" lon="6.34142">
        <ele>701.564963</ele>
        <time>2021-03-28T18:10:07.203Z</time>
      </trkpt>
      <trkpt lat="47.09696" lon="6.342">
        <ele>700.845354</ele>
        <time>2021-03-28T18:10:18.657Z</time>
      </trkpt>
      <trkpt lat="47.09741" lon="6.34253">
        <ele>700.253511</ele>
        <time>2021-03-28T18:10:30.688Z</time>
      </trkpt>
      <trkpt lat="47.09752" lon="6.34265">
        <ele>700.159845</ele>
        <time>2021-03-28T18:10:33.350Z</time>
      </trkpt>
      <trkpt lat="47.09772" lon="6.34287">
        <ele>699.971695</ele>
        <time>2021-03-28T18:10:38.803Z</time>
      </trkpt>
      <trkpt lat="47.09784" lon="6.34301">
        <ele>699.864182</ele>
        <time>2021-03-28T18:10:41.852Z</time>
      </trkpt>
      <trkpt lat="47.09791" lon="6.34308">
        <ele>699.804768</ele>
        <time>2021-03-28T18:10:43.502Z</time>
      </trkpt>
      <trkpt lat="47.09805" lon="6.34327">
        <ele>699.665545</ele>
        <time>2021-03-28T18:10:47.277Z</time>
      </trkpt>
      <trkpt lat="47.09807" lon="6.34331">
        <ele>699.63805</ele>
        <time>2021-03-28T18:10:48.013Z</time>
      </trkpt>
      <trkpt lat="47.09813" lon="6.34339">
        <ele>699.582539</ele>
        <time>2021-03-28T18:10:49.449Z</time>
      </trkpt>
      <trkpt lat="47.09824" lon="6.34356">
        <ele>699.466019</ele>
        <time>2021-03-28T18:10:52.497Z</time>
      </trkpt>
      <trkpt lat="47.09832" lon="6.3437">
        <ele>699.374143</ele>
        <time>2021-03-28T18:10:54.888Z</time>
      </trkpt>
      <trkpt lat="47.0984" lon="6.34383">
        <ele>699.289911</ele>
        <time>2021-03-28T18:10:57.031Z</time>
      </trkpt>
      <trkpt lat="47.09853" lon="6.3441">
        <ele>699.125974</ele>
        <time>2021-03-28T18:11:01.597Z</time>
      </trkpt>
      <trkpt lat="47.09865" lon="6.34438">
        <ele>698.852898</ele>
        <time>2021-03-28T18:11:05.811Z</time>
      </trkpt>
      <trkpt lat="47.09873" lon="6.34457">
        <ele>698.654863</ele>
        <time>2021-03-28T18:11:08.964Z</time>
      </trkpt>
      <trkpt lat="47.0988" lon="6.34473">
        <ele>698.496616</ele>
        <time>2021-03-28T18:11:11.335Z</time>
      </trkpt>
      <trkpt lat="47.09889" lon="6.34501">
        <ele>698.227079</ele>
        <time>2021-03-28T18:11:15.597Z</time>
      </trkpt>
      <trkpt lat="47.09896" lon="6.34524">
        <ele>698.010139</ele>
        <time>2021-03-28T18:11:18.728Z</time>
      </trkpt>
      <trkpt lat="47.09908" lon="6.34569">
        <ele>697.594018</ele>
        <time>2021-03-28T18:11:24.762Z</time>
      </trkpt>
      <trkpt lat="47.09918" lon="6.34596">
        <ele>697.332712</ele>
        <time>2021-03-28T18:11:28.572Z</time>
      </trkpt>
      <trkpt lat="47.09923" lon="6.34612">
        <ele>697.182694</ele>
        <time>2021-03-28T18:11:30.655Z</time>
      </trkpt>
      <trkpt lat="47.0993" lon="6.34629">
        <ele>697.011414</ele>
        <time>2021-03-28T18:11:33.109Z</time>
      </trkpt>
      <trkpt lat="47.09954" lon="6.34701">
        <ele>696.998474</ele>
        <time>2021-03-28T18:11:43.562Z</time>
      </trkpt>
      <trkpt lat="47.09967" lon="6.34735">
        <ele>697.094824</ele>
        <time>2021-03-28T18:11:49.128Z</time>
      </trkpt>
      <trkpt lat="47.10013" lon="6.34855">
        <ele>697.430611</ele>
        <time>2021-03-28T18:12:09.971Z</time>
      </trkpt>
      <trkpt lat="47.1009" lon="6.35058">
        <ele>700.453604</ele>
        <time>2021-03-28T18:12:46.970Z</time>
      </trkpt>
      <trkpt lat="47.10163" lon="6.35252">
        <ele>705.006775</ele>
        <time>2021-03-28T18:13:23.644Z</time>
      </trkpt>
      <trkpt lat="47.10194" lon="6.352">
        <ele>706.57417</ele>
        <time>2021-03-28T18:13:35.674Z</time>
      </trkpt>
      <trkpt lat="47.10212" lon="6.3516">
        <ele>707.768585</ele>
        <time>2021-03-28T18:13:44.048Z</time>
      </trkpt>
      <trkpt lat="47.10227" lon="6.35145">
        <ele>708.592932</ele>
        <time>2021-03-28T18:13:49.059Z</time>
      </trkpt>
      <trkpt lat="47.10292" lon="6.35292">
        <ele>713.845436</ele>
        <time>2021-03-28T18:14:20.777Z</time>
      </trkpt>
      <trkpt lat="47.1036" lon="6.35402">
        <ele>718.371683</ele>
        <time>2021-03-28T18:14:47.873Z</time>
      </trkpt>
      <trkpt lat="47.10373" lon="6.35411">
        <ele>718.980025</ele>
        <time>2021-03-28T18:14:51.476Z</time>
      </trkpt>
      <trkpt lat="47.10386" lon="6.35412">
        <ele>719.578452</ele>
        <time>2021-03-28T18:14:55.042Z</time>
      </trkpt>
      <trkpt lat="47.10397" lon="6.35407">
        <ele>720.091791</ele>
        <time>2021-03-28T18:14:58.065Z</time>
      </trkpt>
      <trkpt lat="47.10451" lon="6.35353">
        <ele>723.057388</ele>
        <time>2021-03-28T18:15:15.619Z</time>
      </trkpt>
      <trkpt lat="47.10505" lon="6.35311">
        <ele>725.438523</ele>
        <time>2021-03-28T18:15:31.540Z</time>
      </trkpt>
      <trkpt lat="47.10563" lon="6.35279">
        <ele>727.849426</ele>
        <time>2021-03-28T18:15:47.653Z</time>
      </trkpt>
      <trkpt lat="47.10629" lon="6.35242">
        <ele>730.470186</ele>
        <time>2021-03-28T18:16:05.520Z</time>
      </trkpt>
      <trkpt lat="47.1068" lon="6.35195">
        <ele>731.938895</ele>
        <time>2021-03-28T18:16:20.273Z</time>
      </trkpt>
      <trkpt lat="47.10715" lon="6.35186">
        <ele>732.826813</ele>
        <time>2021-03-28T18:16:29.066Z</time>
      </trkpt>
      <trkpt lat="47.10771" lon="6.35192">
        <ele>734.208914</ele>
        <time>2021-03-28T18:16:42.588Z</time>
      </trkpt>
      <trkpt lat="47.10816" lon="6.35162">
        <ele>735.0993</ele>
        <time>2021-03-28T18:16:54.205Z</time>
      </trkpt>
      <trkpt lat="47.10922" lon="6.35126">
        <ele>736.603721</ele>
        <time>2021-03-28T18:17:19.913Z</time>
      </trkpt>
      <trkpt lat="47.10934" lon="6.35116">
        <ele>736.792022</ele>
        <time>2021-03-28T18:17:23.085Z</time>
      </trkpt>
      <trkpt lat="47.10994" lon="6.3513">
        <ele>737.371422</ele>
        <time>2021-03-28T18:17:43.661Z</time>
      </trkpt>
      <trkpt lat="47.11134" lon="6.35145">
        <ele>738.187232</ele>
        <time>2021-03-28T18:18:32.106Z</time>
      </trkpt>
      <trkpt lat="47.11184" lon="6.35173">
        <ele>738.86794</ele>
        <time>2021-03-28T18:18:50.480Z</time>
      </trkpt>
      <trkpt lat="47.11237" lon="6.35216">
        <ele>739.713356</ele>
        <time>2021-03-28T18:19:11.135Z</time>
      </trkpt>
      <trkpt lat="47.11302" lon="6.35251">
        <ele>740.674167</ele>
        <time>2021-03-28T18:19:34.320Z</time>
      </trkpt>
      <trkpt lat="47.11366" lon="6.35298">
        <ele>741.775484</ele>
        <time>2021-03-28T18:19:52.866Z</time>
      </trkpt>
      <trkpt lat="47.1143" lon="6.35345">
        <ele>742.882543</ele>
        <time>2021-03-28T18:20:11.408Z</time>
      </trkpt>
      <trkpt lat="47.11494" lon="6.35392">
        <ele>743.350076</ele>
        <time>2021-03-28T18:20:29.926Z</time>
      </trkpt>
      <trkpt lat="47.11558" lon="6.35439">
        <ele>742.999471</ele>
        <time>2021-03-28T18:20:48.467Z</time>
      </trkpt>
      <trkpt lat="47.11558" lon="6.35439">
        <ele>742.999471</ele>
        <time>2021-03-28T18:20:48.467Z</time>
      </trkpt>
      <trkpt lat="47.11629" lon="6.35384">
        <ele>742.615381</ele>
        <time>2021-03-28T18:21:09.146Z</time>
      </trkpt>
      <trkpt lat="47.117" lon="6.3533">
        <ele>742.402188</ele>
        <time>2021-03-28T18:21:29.856Z</time>
      </trkpt>
      <trkpt lat="47.11771" lon="6.35275">
        <ele>742.189315</ele>
        <time>2021-03-28T18:21:50.534Z</time>
      </trkpt>
      <trkpt lat="47.11883" lon="6.35188">
        <ele>741.530383</ele>
        <time>2021-03-28T18:22:34.612Z</time>
      </trkpt>
      <trkpt lat="47.11935" lon="6.35135">
        <ele>741.179818</ele>
        <time>2021-03-28T18:22:55.920Z</time>
      </trkpt>
      <trkpt lat="47.11957" lon="6.35131">
        <ele>740.958022</ele>
        <time>2021-03-28T18:23:03.414Z</time>
      </trkpt>
      <trkpt lat="47.12016" lon="6.35095">
        <ele>740.222201</ele>
        <time>2021-03-28T18:23:24.466Z</time>
      </trkpt>
      <trkpt lat="47.12072" lon="6.35071">
        <ele>739.552717</ele>
        <time>2021-03-28T18:23:43.375Z</time>
      </trkpt>
      <trkpt lat="47.12167" lon="6.35046">
        <ele>738.898504</ele>
        <time>2021-03-28T18:24:16.332Z</time>
      </trkpt>
      <trkpt lat="47.12182" lon="6.35029">
        <ele>738.840712</ele>
        <time>2021-03-28T18:24:22.954Z</time>
      </trkpt>
      <trkpt lat="47.12193" lon="6.35005">
        <ele>738.780493</ele>
        <time>2021-03-28T18:24:29.839Z</time>
      </trkpt>
      <trkpt lat="47.12197" lon="6.35064">
        <ele>738.658087</ele>
        <time>2021-03-28T18:24:38.662Z</time>
      </trkpt>
      <trkpt lat="47.12189" lon="6.3525">
        <ele>739.12317</ele>
        <time>2021-03-28T18:25:07.294Z</time>
      </trkpt>
      <trkpt lat="47.12193" lon="6.3529">
        <ele>739.330167</ele>
        <time>2021-03-28T18:25:13.624Z</time>
      </trkpt>
      <trkpt lat="47.12207" lon="6.35342">
        <ele>739.61525</ele>
        <time>2021-03-28T18:25:22.349Z</time>
      </trkpt>
      <trkpt lat="47.12268" lon="6.35494">
        <ele>741.410213</ele>
        <time>2021-03-28T18:25:50.841Z</time>
      </trkpt>
      <trkpt lat="47.12287" lon="6.35544">
        <ele>742.105993</ele>
        <time>2021-03-28T18:26:00.185Z</time>
      </trkpt>
      <trkpt lat="47.12303" lon="6.35586">
        <ele>742.68728</ele>
        <time>2021-03-28T18:26:08.077Z</time>
      </trkpt>
      <trkpt lat="47.12336" lon="6.35689">
        <ele>744.126911</ele>
        <time>2021-03-28T18:26:27.089Z</time>
      </trkpt>
      <trkpt lat="47.12353" lon="6.35806">
        <ele>745.644566</ele>
        <time>2021-03-28T18:26:46.689Z</time>
      </trkpt>
      <trkpt lat="47.12364" lon="6.35845">
        <ele>746.191563</ele>
        <time>2021-03-28T18:26:53.543Z</time>
      </trkpt>
      <trkpt lat="47.12383" lon="6.35895">
        <ele>746.439835</ele>
        <time>2021-03-28T18:27:02.394Z</time>
      </trkpt>
      <trkpt lat="47.12514" lon="6.35794">
        <ele>746.35541</ele>
        <time>2021-03-28T18:27:53.720Z</time>
      </trkpt>
      <trkpt lat="47.12743" lon="6.3561">
        <ele>742.152413</ele>
        <time>2021-03-28T18:29:19.179Z</time>
      </trkpt>
      <trkpt lat="47.12774" lon="6.35563">
        <ele>741.007164</ele>
        <time>2021-03-28T18:29:32.851Z</time>
      </trkpt>
      <trkpt lat="47.12799" lon="6.35538">
        <ele>740.234191</ele>
        <time>2021-03-28T18:29:41.783Z</time>
      </trkpt>
      <trkpt lat="47.12842" lon="6.35508">
        <ele>738.451074</ele>
        <time>2021-03-28T18:29:55.630Z</time>
      </trkpt>
      <trkpt lat="47.12925" lon="6.35473">
        <ele>733.415621</ele>
        <time>2021-03-28T18:30:18.871Z</time>
      </trkpt>
      <trkpt lat="47.1296" lon="6.35479">
        <ele>731.355045</ele>
        <time>2021-03-28T18:30:28.080Z</time>
      </trkpt>
      <trkpt lat="47.12994" lon="6.35507">
        <ele>729.098153</ele>
        <time>2021-03-28T18:30:38.043Z</time>
      </trkpt>
      <trkpt lat="47.13004" lon="6.35523">
        <ele>728.189394</ele>
        <time>2021-03-28T18:30:41.785Z</time>
      </trkpt>
      <trkpt lat="47.13046" lon="6.35589">
        <ele>724.385491</ele>
        <time>2021-03-28T18:30:57.791Z</time>
      </trkpt>
      <trkpt lat="47.13081" lon="6.35602">
        <ele>722.141996</ele>
        <time>2021-03-28T18:31:07.306Z</time>
      </trkpt>
      <trkpt lat="47.13127" lon="6.35606">
        <ele>719.263718</ele>
        <time>2021-03-28T18:31:19.676Z</time>
      </trkpt>
      <trkpt lat="47.13137" lon="6.35615">
        <ele>718.57057</ele>
        <time>2021-03-28T18:31:22.808Z</time>
      </trkpt>
      <trkpt lat="47.13139" lon="6.35625">
        <ele>718.124829</ele>
        <time>2021-03-28T18:31:24.867Z</time>
      </trkpt>
      <trkpt lat="47.13135" lon="6.35649">
        <ele>717.364794</ele>
        <time>2021-03-28T18:31:29.946Z</time>
      </trkpt>
      <trkpt lat="47.13031" lon="6.35752">
        <ele>712.779957</ele>
        <time>2021-03-28T18:32:06.015Z</time>
      </trkpt>
      <trkpt lat="47.13022" lon="6.35778">
        <ele>712.045673</ele>
        <time>2021-03-28T18:32:12.607Z</time>
      </trkpt>
      <trkpt lat="47.13026" lon="6.35783">
        <ele>711.833107</ele>
        <time>2021-03-28T18:32:13.475Z</time>
      </trkpt>
      <trkpt lat="47.13122" lon="6.3581">
        <ele>707.999401</ele>
        <time>2021-03-28T18:32:30.197Z</time>
      </trkpt>
      <trkpt lat="47.13241" lon="6.35802">
        <ele>703.159793</ele>
        <time>2021-03-28T18:32:49.213Z</time>
      </trkpt>
      <trkpt lat="47.13307" lon="6.35821">
        <ele>700.034212</ele>
        <time>2021-03-28T18:33:00.038Z</time>
      </trkpt>
      <trkpt lat="47.1334" lon="6.35842">
        <ele>698.402865</ele>
        <time>2021-03-28T18:33:05.703Z</time>
      </trkpt>
      <trkpt lat="47.13358" lon="6.35865">
        <ele>697.300851</ele>
        <time>2021-03-28T18:33:09.546Z</time>
      </trkpt>
      <trkpt lat="47.13366" lon="6.35896">
        <ele>696.26872</ele>
        <time>2021-03-28T18:33:13.214Z</time>
      </trkpt>
      <trkpt lat="47.13368" lon="6.3594">
        <ele>695.166603</ele>
        <time>2021-03-28T18:33:18.326Z</time>
      </trkpt>
      <trkpt lat="47.1337" lon="6.35948">
        <ele>694.978057</ele>
        <time>2021-03-28T18:33:19.255Z</time>
      </trkpt>
      <trkpt lat="47.13376" lon="6.35944">
        <ele>694.751772</ele>
        <time>2021-03-28T18:33:20.435Z</time>
      </trkpt>
      <trkpt lat="47.13413" lon="6.35924">
        <ele>693.534887</ele>
        <time>2021-03-28T18:33:26.794Z</time>
      </trkpt>
      <trkpt lat="47.13422" lon="6.35921">
        <ele>693.258462</ele>
        <time>2021-03-28T18:33:28.264Z</time>
      </trkpt>
      <trkpt lat="47.13475" lon="6.35899">
        <ele>691.555451</ele>
        <time>2021-03-28T18:33:37.283Z</time>
      </trkpt>
      <trkpt lat="47.13708" lon="6.35734">
        <ele>685.897768</ele>
        <time>2021-03-28T18:34:22.602Z</time>
      </trkpt>
      <trkpt lat="47.13828" lon="6.35581">
        <ele>683.089122</ele>
        <time>2021-03-28T18:34:51.292Z</time>
      </trkpt>
      <trkpt lat="47.13862" lon="6.35546">
        <ele>682.538547</ele>
        <time>2021-03-28T18:34:58.477Z</time>
      </trkpt>
      <trkpt lat="47.13912" lon="6.3551">
        <ele>681.796416</ele>
        <time>2021-03-28T18:35:08.716Z</time>
      </trkpt>
      <trkpt lat="47.13923" lon="6.35502">
        <ele>681.628838</ele>
        <time>2021-03-28T18:35:11.091Z</time>
      </trkpt>
      <trkpt lat="47.13952" lon="6.35474">
        <ele>681.16887</ele>
        <time>2021-03-28T18:35:17.706Z</time>
      </trkpt>
      <trkpt lat="47.13959" lon="6.35463">
        <ele>681.032407</ele>
        <time>2021-03-28T18:35:19.417Z</time>
      </trkpt>
      <trkpt lat="47.13963" lon="6.35467">
        <ele>680.975968</ele>
        <time>2021-03-28T18:35:20.869Z</time>
      </trkpt>
      <trkpt lat="47.14076" lon="6.35439">
        <ele>681.431608</ele>
        <time>2021-03-28T18:36:00.448Z</time>
      </trkpt>
      <trkpt lat="47.14098" lon="6.35444">
        <ele>681.552534</ele>
        <time>2021-03-28T18:36:08.352Z</time>
      </trkpt>
      <trkpt lat="47.14127" lon="6.35446">
        <ele>681.705087</ele>
        <time>2021-03-28T18:36:18.044Z</time>
      </trkpt>
      <trkpt lat="47.14153" lon="6.35499">
        <ele>682.407066</ele>
        <time>2021-03-28T18:36:30.598Z</time>
      </trkpt>
      <trkpt lat="47.14153" lon="6.35499">
        <ele>682.414404</ele>
        <time>2021-03-28T18:36:30.794Z</time>
      </trkpt>
      <trkpt lat="47.14166" lon="6.35507">
        <ele>682.763124</ele>
        <time>2021-03-28T18:36:34.613Z</time>
      </trkpt>
      <trkpt lat="47.14173" lon="6.35508">
        <ele>682.958793</ele>
        <time>2021-03-28T18:36:36.856Z</time>
      </trkpt>
      <trkpt lat="47.14179" lon="6.35508">
        <ele>683.100304</ele>
        <time>2021-03-28T18:36:38.246Z</time>
      </trkpt>
      <trkpt lat="47.14182" lon="6.35508">
        <ele>683.195897</ele>
        <time>2021-03-28T18:36:39.297Z</time>
      </trkpt>
      <trkpt lat="47.14217" lon="6.3549">
        <ele>684.140841</ele>
        <time>2021-03-28T18:36:49.734Z</time>
      </trkpt>
      <trkpt lat="47.14218" lon="6.35496">
        <ele>684.255837</ele>
        <time>2021-03-28T18:36:50.916Z</time>
      </trkpt>
      <trkpt lat="47.1427" lon="6.35545">
        <ele>685.846683</ele>
        <time>2021-03-28T18:37:06.261Z</time>
      </trkpt>
      <trkpt lat="47.14294" lon="6.35577">
        <ele>686.71257</ele>
        <time>2021-03-28T18:37:14.288Z</time>
      </trkpt>
      <trkpt lat="47.14376" lon="6.35831">
        <ele>692.466628</ele>
        <time>2021-03-28T18:38:02.459Z</time>
      </trkpt>
      <trkpt lat="47.14395" lon="6.35888">
        <ele>693.045166</ele>
        <time>2021-03-28T18:38:13.061Z</time>
      </trkpt>
      <trkpt lat="47.14535" lon="6.35788">
        <ele>694.554077</ele>
        <time>2021-03-28T18:38:48.497Z</time>
      </trkpt>
      <trkpt lat="47.14553" lon="6.35785">
        <ele>694.531615</ele>
        <time>2021-03-28T18:38:52.241Z</time>
      </trkpt>
      <trkpt lat="47.14554" lon="6.35776">
        <ele>694.523457</ele>
        <time>2021-03-28T18:38:53.579Z</time>
      </trkpt>
      <trkpt lat="47.1456" lon="6.35777">
        <ele>694.516638</ele>
        <time>2021-03-28T18:38:54.692Z</time>
      </trkpt>
      <trkpt lat="47.14667" lon="6.36031">
        <ele>694.305176</ele>
        <time>2021-03-28T18:39:38.608Z</time>
      </trkpt>
      <trkpt lat="47.14707" lon="6.36156">
        <ele>694.214257</ele>
        <time>2021-03-28T18:39:59.312Z</time>
      </trkpt>
      <trkpt lat="47.14712" lon="6.36178">
        <ele>694.169796</ele>
        <time>2021-03-28T18:40:03.014Z</time>
      </trkpt>
      <trkpt lat="47.14716" lon="6.36197">
        <ele>694.134636</ele>
        <time>2021-03-28T18:40:05.699Z</time>
      </trkpt>
      <trkpt lat="47.1473" lon="6.36294">
        <ele>693.950114</ele>
        <time>2021-03-28T18:40:19.974Z</time>
      </trkpt>
      <trkpt lat="47.14733" lon="6.36359">
        <ele>693.828175</ele>
        <time>2021-03-28T18:40:29.422Z</time>
      </trkpt>
      <trkpt lat="47.14751" lon="6.36425">
        <ele>693.787586</ele>
        <time>2021-03-28T18:40:40.083Z</time>
      </trkpt>
      <trkpt lat="47.14758" lon="6.3645">
        <ele>693.838551</ele>
        <time>2021-03-28T18:40:43.972Z</time>
      </trkpt>
      <trkpt lat="47.1476" lon="6.36458">
        <ele>693.855069</ele>
        <time>2021-03-28T18:40:45.362Z</time>
      </trkpt>
      <trkpt lat="47.14773" lon="6.3648">
        <ele>693.909087</ele>
        <time>2021-03-28T18:40:49.722Z</time>
      </trkpt>
      <trkpt lat="47.14816" lon="6.36495">
        <ele>694.031866</ele>
        <time>2021-03-28T18:40:59.638Z</time>
      </trkpt>
      <trkpt lat="47.14831" lon="6.36504">
        <ele>694.076157</ele>
        <time>2021-03-28T18:41:03.350Z</time>
      </trkpt>
      <trkpt lat="47.14847" lon="6.36512">
        <ele>694.124272</ele>
        <time>2021-03-28T18:41:09.317Z</time>
      </trkpt>
      <trkpt lat="47.14891" lon="6.3652">
        <ele>694.221978</ele>
        <time>2021-03-28T18:41:24.379Z</time>
      </trkpt>
      <trkpt lat="47.14898" lon="6.36521">
        <ele>694.168359</ele>
        <time>2021-03-28T18:41:26.829Z</time>
      </trkpt>
      <trkpt lat="47.14989" lon="6.36506">
        <ele>693.496021</ele>
        <time>2021-03-28T18:41:58.276Z</time>
      </trkpt>
      <trkpt lat="47.15006" lon="6.36504">
        <ele>693.365539</ele>
        <time>2021-03-28T18:42:04.336Z</time>
      </trkpt>
      <trkpt lat="47.15032" lon="6.36501">
        <ele>693.174069</ele>
        <time>2021-03-28T18:42:12.673Z</time>
      </trkpt>
      <trkpt lat="47.15136" lon="6.36489">
        <ele>690.406001</ele>
        <time>2021-03-28T18:42:44.555Z</time>
      </trkpt>
      <trkpt lat="47.15152" lon="6.36482">
        <ele>689.790509</ele>
        <time>2021-03-28T18:42:49.306Z</time>
      </trkpt>
      <trkpt lat="47.15193" lon="6.36436">
        <ele>687.916168</ele>
        <time>2021-03-28T18:43:03.625Z</time>
      </trkpt>
      <trkpt lat="47.15246" lon="6.36344">
        <ele>684.642369</ele>
        <time>2021-03-28T18:43:26.770Z</time>
      </trkpt>
      <trkpt lat="47.15258" lon="6.36322">
        <ele>683.781932</ele>
        <time>2021-03-28T18:43:32.143Z</time>
      </trkpt>
      <trkpt lat="47.15259" lon="6.3626">
        <ele>681.935861</ele>
        <time>2021-03-28T18:43:44.029Z</time>
      </trkpt>
      <trkpt lat="47.15268" lon="6.36206">
        <ele>680.263979</ele>
        <time>2021-03-28T18:43:54.690Z</time>
      </trkpt>
      <trkpt lat="47.15269" lon="6.36178">
        <ele>679.436385</ele>
        <time>2021-03-28T18:43:59.951Z</time>
      </trkpt>
      <trkpt lat="47.15245" lon="6.36117">
        <ele>677.547336</ele>
        <time>2021-03-28T18:44:13.379Z</time>
      </trkpt>
      <trkpt lat="47.15205" lon="6.36019">
        <ele>674.816882</ele>
        <time>2021-03-28T18:44:36.060Z</time>
      </trkpt>
      <trkpt lat="47.15164" lon="6.35923">
        <ele>672.10261</ele>
        <time>2021-03-28T18:44:49.219Z</time>
      </trkpt>
      <trkpt lat="47.15138" lon="6.35872">
        <ele>670.997362</ele>
        <time>2021-03-28T18:44:56.758Z</time>
      </trkpt>
      <trkpt lat="47.15079" lon="6.35817">
        <ele>669.221831</ele>
        <time>2021-03-28T18:45:09.320Z</time>
      </trkpt>
      <trkpt lat="47.15045" lon="6.35772">
        <ele>668.056988</ele>
        <time>2021-03-28T18:45:17.649Z</time>
      </trkpt>
      <trkpt lat="47.14999" lon="6.35712">
        <ele>666.562271</ele>
        <time>2021-03-28T18:45:28.782Z</time>
      </trkpt>
      <trkpt lat="47.1508" lon="6.35585">
        <ele>663.758196</ele>
        <time>2021-03-28T18:45:49.878Z</time>
      </trkpt>
      <trkpt lat="47.15124" lon="6.35481">
        <ele>661.88308</ele>
        <time>2021-03-28T18:46:05.018Z</time>
      </trkpt>
      <trkpt lat="47.15129" lon="6.35454">
        <ele>661.454865</ele>
        <time>2021-03-28T18:46:08.655Z</time>
      </trkpt>
      <trkpt lat="47.15128" lon="6.35377">
        <ele>660.30961</ele>
        <time>2021-03-28T18:46:18.237Z</time>
      </trkpt>
      <trkpt lat="47.15145" lon="6.35334">
        <ele>659.551134</ele>
        <time>2021-03-28T18:46:24.468Z</time>
      </trkpt>
      <trkpt lat="47.15132" lon="6.35262">
        <ele>658.262122</ele>
        <time>2021-03-28T18:46:33.666Z</time>
      </trkpt>
      <trkpt lat="47.15129" lon="6.35207">
        <ele>657.282675</ele>
        <time>2021-03-28T18:46:40.247Z</time>
      </trkpt>
      <trkpt lat="47.1513" lon="6.352">
        <ele>657.146181</ele>
        <time>2021-03-28T18:46:41.206Z</time>
      </trkpt>
      <trkpt lat="47.15134" lon="6.35202">
        <ele>657.051489</ele>
        <time>2021-03-28T18:46:41.720Z</time>
      </trkpt>
      <trkpt lat="47.15163" lon="6.35211">
        <ele>656.24848</ele>
        <time>2021-03-28T18:46:47.377Z</time>
      </trkpt>
      <trkpt lat="47.15213" lon="6.35215">
        <ele>654.953681</ele>
        <time>2021-03-28T18:46:55.809Z</time>
      </trkpt>
      <trkpt lat="47.15213" lon="6.35225">
        <ele>654.774594</ele>
        <time>2021-03-28T18:46:57.489Z</time>
      </trkpt>
      <trkpt lat="47.15213" lon="6.35225">
        <ele>654.774594</ele>
        <time>2021-03-28T18:46:57.499Z</time>
      </trkpt>
      <trkpt lat="47.15213" lon="6.35225">
        <ele>654.774594</ele>
        <time>2021-03-28T18:46:57.539Z</time>
      </trkpt>
      <trkpt lat="47.15213" lon="6.35215">
        <ele>654.595508</ele>
        <time>2021-03-28T18:46:59.170Z</time>
      </trkpt>
      <trkpt lat="47.15248" lon="6.35217">
        <ele>653.654842</ele>
        <time>2021-03-28T18:47:05.417Z</time>
      </trkpt>
      <trkpt lat="47.15277" lon="6.35234">
        <ele>652.839061</ele>
        <time>2021-03-28T18:47:10.741Z</time>
      </trkpt>
      <trkpt lat="47.15389" lon="6.3534">
        <ele>649.510228</ele>
        <time>2021-03-28T18:47:34.431Z</time>
      </trkpt>
      <trkpt lat="47.15413" lon="6.35334">
        <ele>649.074054</ele>
        <time>2021-03-28T18:47:39.018Z</time>
      </trkpt>
      <trkpt lat="47.15418" lon="6.35332">
        <ele>648.978633</ele>
        <time>2021-03-28T18:47:39.871Z</time>
      </trkpt>
      <trkpt lat="47.1541" lon="6.35265">
        <ele>648.144488</ele>
        <time>2021-03-28T18:47:48.194Z</time>
      </trkpt>
      <trkpt lat="47.15407" lon="6.35239">
        <ele>647.813721</ele>
        <time>2021-03-28T18:47:51.558Z</time>
      </trkpt>
      <trkpt lat="47.15404" lon="6.35203">
        <ele>647.361778</ele>
        <time>2021-03-28T18:47:56.025Z</time>
      </trkpt>
      <trkpt lat="47.15409" lon="6.35201">
        <ele>647.269463</ele>
        <time>2021-03-28T18:47:56.981Z</time>
      </trkpt>
      <trkpt lat="47.15431" lon="6.35198">
        <ele>646.861279</ele>
        <time>2021-03-28T18:48:01.197Z</time>
      </trkpt>
      <trkpt lat="47.15437" lon="6.35191">
        <ele>646.727375</ele>
        <time>2021-03-28T18:48:02.669Z</time>
      </trkpt>
      <trkpt lat="47.15473" lon="6.35097">
        <ele>645.79844</ele>
        <time>2021-03-28T18:48:17.139Z</time>
      </trkpt>
      <trkpt lat="47.15481" lon="6.35074">
        <ele>645.584011</ele>
        <time>2021-03-28T18:48:20.747Z</time>
      </trkpt>
      <trkpt lat="47.15508" lon="6.34995">
        <ele>644.852107</ele>
        <time>2021-03-28T18:48:32.984Z</time>
      </trkpt>
      <trkpt lat="47.15522" lon="6.34953">
        <ele>644.477321</ele>
        <time>2021-03-28T18:48:39.316Z</time>
      </trkpt>
      <trkpt lat="47.15524" lon="6.34943">
        <ele>644.390174</ele>
        <time>2021-03-28T18:48:40.744Z</time>
      </trkpt>
      <trkpt lat="47.15521" lon="6.34893">
        <ele>643.921637</ele>
        <time>2021-03-28T18:48:47.529Z</time>
      </trkpt>
      <trkpt lat="47.15515" lon="6.34874">
        <ele>643.727347</ele>
        <time>2021-03-28T18:48:50.498Z</time>
      </trkpt>
      <trkpt lat="47.15507" lon="6.34853">
        <ele>643.509525</ele>
        <time>2021-03-28T18:48:53.556Z</time>
      </trkpt>
      <trkpt lat="47.15489" lon="6.34814">
        <ele>643.081243</ele>
        <time>2021-03-28T18:48:59.887Z</time>
      </trkpt>
      <trkpt lat="47.15483" lon="6.34806">
        <ele>642.964169</ele>
        <time>2021-03-28T18:49:01.517Z</time>
      </trkpt>
      <trkpt lat="47.1545" lon="6.34761">
        <ele>642.358289</ele>
        <time>2021-03-28T18:49:10.413Z</time>
      </trkpt>
      <trkpt lat="47.15433" lon="6.34739">
        <ele>642.048406</ele>
        <time>2021-03-28T18:49:14.670Z</time>
      </trkpt>
      <trkpt lat="47.15436" lon="6.34733">
        <ele>641.972909</ele>
        <time>2021-03-28T18:49:15.678Z</time>
      </trkpt>
      <trkpt lat="47.15445" lon="6.34695">
        <ele>641.579919</ele>
        <time>2021-03-28T18:49:20.916Z</time>
      </trkpt>
      <trkpt lat="47.15499" lon="6.34641">
        <ele>640.642376</ele>
        <time>2021-03-28T18:49:33.362Z</time>
      </trkpt>
      <trkpt lat="47.1548" lon="6.34594">
        <ele>640.111389</ele>
        <time>2021-03-28T18:49:40.468Z</time>
      </trkpt>
      <trkpt lat="47.15476" lon="6.34584">
        <ele>639.990841</ele>
        <time>2021-03-28T18:49:42.011Z</time>
      </trkpt>
      <trkpt lat="47.15459" lon="6.34534">
        <ele>639.449222</ele>
        <time>2021-03-28T18:49:49.560Z</time>
      </trkpt>
      <trkpt lat="47.15449" lon="6.34483">
        <ele>639.167112</ele>
        <time>2021-03-28T18:49:57.003Z</time>
      </trkpt>
      <trkpt lat="47.15449" lon="6.34479">
        <ele>639.149298</ele>
        <time>2021-03-28T18:49:57.448Z</time>
      </trkpt>
      <trkpt lat="47.15457" lon="6.3448">
        <ele>639.092521</ele>
        <time>2021-03-28T18:49:59.063Z</time>
      </trkpt>
      <trkpt lat="47.15469" lon="6.34476">
        <ele>639.003595</ele>
        <time>2021-03-28T18:50:01.675Z</time>
      </trkpt>
      <trkpt lat="47.15475" lon="6.34473">
        <ele>638.955943</ele>
        <time>2021-03-28T18:50:02.981Z</time>
      </trkpt>
      <trkpt lat="47.15471" lon="6.34421">
        <ele>638.694533</ele>
        <time>2021-03-28T18:50:10.498Z</time>
      </trkpt>
      <trkpt lat="47.15463" lon="6.3438">
        <ele>638.483535</ele>
        <time>2021-03-28T18:50:16.653Z</time>
      </trkpt>
      <trkpt lat="47.15434" lon="6.34352">
        <ele>638.230604</ele>
        <time>2021-03-28T18:50:23.914Z</time>
      </trkpt>
      <trkpt lat="47.1543" lon="6.34353">
        <ele>638.199124</ele>
        <time>2021-03-28T18:50:24.874Z</time>
      </trkpt>
      <trkpt lat="47.15425" lon="6.343">
        <ele>637.944032</ele>
        <time>2021-03-28T18:50:32.474Z</time>
      </trkpt>
      <trkpt lat="47.15425" lon="6.3429">
        <ele>637.897904</ele>
        <time>2021-03-28T18:50:33.755Z</time>
      </trkpt>
      <trkpt lat="47.15408" lon="6.34272">
        <ele>637.751494</ele>
        <time>2021-03-28T18:50:38.323Z</time>
      </trkpt>
      <trkpt lat="47.15391" lon="6.3425">
        <ele>637.595436</ele>
        <time>2021-03-28T18:50:42.951Z</time>
      </trkpt>
      <trkpt lat="47.15389" lon="6.34247">
        <ele>637.576357</ele>
        <time>2021-03-28T18:50:43.606Z</time>
      </trkpt>
      <trkpt lat="47.15405" lon="6.34228">
        <ele>637.434018</ele>
        <time>2021-03-28T18:50:47.900Z</time>
      </trkpt>
      <trkpt lat="47.15413" lon="6.34217">
        <ele>637.359615</ele>
        <time>2021-03-28T18:50:50.038Z</time>
      </trkpt>
      <trkpt lat="47.15429" lon="6.34191">
        <ele>637.197352</ele>
        <time>2021-03-28T18:50:55.113Z</time>
      </trkpt>
      <trkpt lat="47.1546" lon="6.34112">
        <ele>636.722736</ele>
        <time>2021-03-28T18:51:07.853Z</time>
      </trkpt>
      <trkpt lat="47.15468" lon="6.34095">
        <ele>636.577941</ele>
        <time>2021-03-28T18:51:10.634Z</time>
      </trkpt>
      <trkpt lat="47.15469" lon="6.34089">
        <ele>636.536822</ele>
        <time>2021-03-28T18:51:11.386Z</time>
      </trkpt>
      <trkpt lat="47.15466" lon="6.34014">
        <ele>636.010031</ele>
        <time>2021-03-28T18:51:21.691Z</time>
      </trkpt>
      <trkpt lat="47.15464" lon="6.34001">
        <ele>635.910788</ele>
        <time>2021-03-28T18:51:23.662Z</time>
      </trkpt>
      <trkpt lat="47.15463" lon="6.33993">
        <ele>635.853836</ele>
        <time>2021-03-28T18:51:24.789Z</time>
      </trkpt>
      <trkpt lat="47.15462" lon="6.33984">
        <ele>635.794128</ele>
        <time>2021-03-28T18:51:25.956Z</time>
      </trkpt>
      <trkpt lat="47.15462" lon="6.33947">
        <ele>635.535759</ele>
        <time>2021-03-28T18:51:31.081Z</time>
      </trkpt>
      <trkpt lat="47.15463" lon="6.33901">
        <ele>635.212149</ele>
        <time>2021-03-28T18:51:37.495Z</time>
      </trkpt>
      <trkpt lat="47.15466" lon="6.33824">
        <ele>634.685248</ele>
        <time>2021-03-28T18:51:47.884Z</time>
      </trkpt>
      <trkpt lat="47.15467" lon="6.33808">
        <ele>634.574756</ele>
        <time>2021-03-28T18:51:50.087Z</time>
      </trkpt>
      <trkpt lat="47.15468" lon="6.33792">
        <ele>634.466294</ele>
        <time>2021-03-28T18:51:52.273Z</time>
      </trkpt>
      <trkpt lat="47.15482" lon="6.33691">
        <ele>633.764711</ele>
        <time>2021-03-28T18:52:06.353Z</time>
      </trkpt>
      <trkpt lat="47.15483" lon="6.33682">
        <ele>633.703855</ele>
        <time>2021-03-28T18:52:07.551Z</time>
      </trkpt>
      <trkpt lat="47.15483" lon="6.3366">
        <ele>633.550941</ele>
        <time>2021-03-28T18:52:10.769Z</time>
      </trkpt>
      <trkpt lat="47.15482" lon="6.33635">
        <ele>633.382584</ele>
        <time>2021-03-28T18:52:14.246Z</time>
      </trkpt>
      <trkpt lat="47.15475" lon="6.33556">
        <ele>633.11986</ele>
        <time>2021-03-28T18:52:25.613Z</time>
      </trkpt>
      <trkpt lat="47.15471" lon="6.33486">
        <ele>633.003314</ele>
        <time>2021-03-28T18:52:35.796Z</time>
      </trkpt>
      <trkpt lat="47.15464" lon="6.33464">
        <ele>632.962824</ele>
        <time>2021-03-28T18:52:39.272Z</time>
      </trkpt>
      <trkpt lat="47.15455" lon="6.3345">
        <ele>632.930639</ele>
        <time>2021-03-28T18:52:42.209Z</time>
      </trkpt>
      <trkpt lat="47.15478" lon="6.33415">
        <ele>632.850038</ele>
        <time>2021-03-28T18:52:49.460Z</time>
      </trkpt>
      <trkpt lat="47.15486" lon="6.33386">
        <ele>632.798331</ele>
        <time>2021-03-28T18:52:54.206Z</time>
      </trkpt>
      <trkpt lat="47.15488" lon="6.33369">
        <ele>632.770585</ele>
        <time>2021-03-28T18:52:56.883Z</time>
      </trkpt>
      <trkpt lat="47.1547" lon="6.33377">
        <ele>632.770585</ele>
        <time>2021-03-28T18:53:09.786Z</time>
      </trkpt>
      <trkpt lat="47.15467" lon="6.33365">
        <ele>632.770585</ele>
        <time>2021-03-28T18:53:16.063Z</time>
      </trkpt>
      <trkpt lat="47.15437" lon="6.33349">
        <ele>632.770585</ele>
        <time>2021-03-28T18:53:38.275Z</time>
      </trkpt>
      <trkpt lat="47.15426" lon="6.33343">
        <ele>632.770585</ele>
        <time>2021-03-28T18:53:46.477Z</time>
      </trkpt>
      <trkpt lat="47.15423" lon="6.33349">
        <ele>632.770585</ele>
        <time>2021-03-28T18:53:47.680Z</time>
      </trkpt>
      <trkpt lat="47.15393" lon="6.33365">
        <ele>632.770585</ele>
        <time>2021-03-28T18:53:54.514Z</time>
      </trkpt>
      <trkpt lat="47.15365" lon="6.33361">
        <ele>632.770585</ele>
        <time>2021-03-28T18:54:00.689Z</time>
      </trkpt>
      <trkpt lat="47.15357" lon="6.33361">
        <ele>632.770585</ele>
        <time>2021-03-28T18:54:02.520Z</time>
      </trkpt>
      <trkpt lat="47.15357" lon="6.33341">
        <ele>632.770585</ele>
        <time>2021-03-28T18:54:05.505Z</time>
      </trkpt>
      <trkpt lat="47.15359" lon="6.33291">
        <ele>632.770585</ele>
        <time>2021-03-28T18:54:13.041Z</time>
      </trkpt>
      <trkpt lat="47.15355" lon="6.33266">
        <ele>632.770585</ele>
        <time>2021-03-28T18:54:16.798Z</time>
      </trkpt>
    </trkseg>
  </trk>
</gpx>